Observation data for Mertzon on 08/14/2020      Previous  Date  Next       Current Mesonet Observations  Soil Data  Daily Summary Page  Observations in Plain Language
KME1 140500Z 20004KT 27/13 A2998 RMK A01 T02660129  RH  043%=      5-min Rain = 0
KME1 140501Z 20005KT 27/13 A2998 RMK A01 T02670130  RH  043%=      5-min Rain = 0
KME1 140502Z 20004KT 27/13 A2998 RMK A01 T02670130  RH  043%=      5-min Rain = 0
KME1 140503Z 20004KT 27/13 A2998 RMK A01 T02670130  RH  043%=      5-min Rain = 0
KME1 140504Z 20004KT 27/13 A2998 RMK A01 T02670130  RH  043%=      5-min Rain = 0
KME1 140505Z 20004KT 27/13 A2998 RMK A01 T02670130  RH  043%=      5-min Rain = 0
KME1 140506Z 20004KT 27/13 A2998 RMK A01 T02660130  RH  043%=      5-min Rain = 0
KME1 140507Z 20004KT 27/13 A2998 RMK A01 T02660131  RH  043%=      5-min Rain = 0
KME1 140508Z 20004KT 27/13 A2998 RMK A01 T02660130  RH  043%=      5-min Rain = 0
KME1 140509Z 20004KT 27/13 A2997 RMK A01 T02660131  RH  043%=      5-min Rain = 0
KME1 140510Z 20004KT 27/13 A2997 RMK A01 T02650130  RH  043%=      5-min Rain = 0
KME1 140511Z 20005KT 26/13 A2997 RMK A01 T02640130  RH  043%=      5-min Rain = 0
KME1 140512Z 20004KT 26/13 A2997 RMK A01 T02640130  RH  044%=      5-min Rain = 0
KME1 140513Z 20005KT 26/13 A2997 RMK A01 T02640130  RH  044%=      5-min Rain = 0
KME1 140514Z 19004KT 26/13 A2997 RMK A01 T02640130  RH  044%=      5-min Rain = 0
KME1 140515Z 19004KT 26/13 A2997 RMK A01 T02630130  RH  044%=      5-min Rain = 0
KME1 140516Z 20004KT 26/13 A2997 RMK A01 T02630130  RH  044%=      5-min Rain = 0
KME1 140517Z 20004KT 26/13 A2997 RMK A01 T02630130  RH  044%=      5-min Rain = 0
KME1 140518Z 20004KT 26/13 A2997 RMK A01 T02630130  RH  044%=      5-min Rain = 0
KME1 140519Z 20004KT 26/13 A2997 RMK A01 T02630130  RH  044%=      5-min Rain = 0
KME1 140520Z 19004KT 26/13 A2997 RMK A01 T02630130  RH  044%=      5-min Rain = 0
KME1 140521Z 20005KT 26/13 A2997 RMK A01 T02620130  RH  044%=      5-min Rain = 0
KME1 140522Z 20004KT 26/13 A2997 RMK A01 T02620130  RH  044%=      5-min Rain = 0
KME1 140523Z 20004KT 26/13 A2997 RMK A01 T02620130  RH  044%=      5-min Rain = 0
KME1 140524Z 20004KT 26/13 A2997 RMK A01 T02630130  RH  044%=      5-min Rain = 0
KME1 140525Z 20004KT 26/13 A2997 RMK A01 T02630130  RH  044%=      5-min Rain = 0
KME1 140526Z 20004KT 26/13 A2997 RMK A01 T02630130  RH  044%=      5-min Rain = 0
KME1 140527Z 20004KT 26/13 A2997 RMK A01 T02630130  RH  044%=      5-min Rain = 0
KME1 140528Z 21004KT 26/13 A2997 RMK A01 T02630131  RH  044%=      5-min Rain = 0
KME1 140529Z 21004KT 26/13 A2997 RMK A01 T02630130  RH  044%=      5-min Rain = 0
KME1 140530Z 21004KT 26/13 A2997 RMK A01 T02630130  RH  044%=      5-min Rain = 0
KME1 140531Z 21004KT 26/13 A2997 RMK A01 T02620130  RH  044%=      5-min Rain = 0
KME1 140532Z 21004KT 26/13 A2997 RMK A01 T02620130  RH  044%=      5-min Rain = 0
KME1 140533Z 21004KT 26/13 A2997 RMK A01 T02610130  RH  044%=      5-min Rain = 0
KME1 140534Z 20004KT 26/13 A2997 RMK A01 T02620130  RH  044%=      5-min Rain = 0
KME1 140535Z 21004KT 26/13 A2997 RMK A01 T02620130  RH  044%=      5-min Rain = 0
KME1 140536Z 21004KT 26/13 A2998 RMK A01 T02620129  RH  044%=      5-min Rain = 0
KME1 140537Z 21004KT 26/13 A2998 RMK A01 T02620130  RH  044%=      5-min Rain = 0
KME1 140538Z 21004KT 26/13 A2998 RMK A01 T02620130  RH  044%=      5-min Rain = 0
KME1 140539Z 21005KT 26/13 A2998 RMK A01 T02620130  RH  044%=      5-min Rain = 0
KME1 140540Z 20005KT 26/13 A2998 RMK A01 T02630130  RH  044%=      5-min Rain = 0
KME1 140541Z 21005KT 26/13 A2998 RMK A01 T02630130  RH  044%=      5-min Rain = 0
KME1 140542Z 20005KT 26/13 A2998 RMK A01 T02630130  RH  044%=      5-min Rain = 0
KME1 140543Z 20004KT 26/13 A2998 RMK A01 T02630130  RH  044%=      5-min Rain = 0
KME1 140544Z 20004KT 26/13 A2998 RMK A01 T02640130  RH  044%=      5-min Rain = 0
KME1 140545Z 21005KT 26/13 A2998 RMK A01 T02640130  RH  044%=      5-min Rain = 0
KME1 140546Z 21005KT 26/13 A2998 RMK A01 T02640130  RH  044%=      5-min Rain = 0
KME1 140547Z 21005KT 26/13 A2998 RMK A01 T02640131  RH  044%=      5-min Rain = 0
KME1 140548Z 21005KT 26/13 A2998 RMK A01 T02640130  RH  044%=      5-min Rain = 0
KME1 140549Z 21005KT 26/13 A2998 RMK A01 T02640130  RH  044%=      5-min Rain = 0
KME1 140550Z 21005KT 26/13 A2998 RMK A01 T02640131  RH  044%=      5-min Rain = 0
KME1 140551Z 20005KT 26/13 A2998 RMK A01 T02640131  RH  044%=      5-min Rain = 0
KME1 140552Z 21005KT 26/13 A2998 RMK A01 T02640131  RH  044%=      5-min Rain = 0
KME1 140553Z 20005KT 26/13 A2998 RMK A01 T02630131  RH  044%=      5-min Rain = 0
KME1 140554Z 21004KT 26/13 A2998 RMK A01 T02630131  RH  044%=      5-min Rain = 0
KME1 140555Z 20005KT 26/13 A2998 RMK A01 T02640131  RH  044%=      5-min Rain = 0
KME1 140556Z 20005KT 26/13 A2998 RMK A01 T02640131  RH  044%=      5-min Rain = 0
KME1 140557Z 20005KT 27/13 A2998 RMK A01 T02650131  RH  044%=      5-min Rain = 0
KME1 140558Z 20005KT 27/13 A2998 RMK A01 T02650131  RH  044%=      5-min Rain = 0
KME1 140559Z 20005KT 27/13 A2998 RMK A01 T02660132  RH  044%=      5-min Rain = 0
KME1 140600Z 20005KT 27/13 A2998 RMK A01 T02660132  RH  043%=      5-min Rain = 0
KME1 140601Z 19004KT 27/13 A2998 RMK A01 T02660132  RH  043%=      5-min Rain = 0
KME1 140602Z 20005KT 27/13 A2998 RMK A01 T02670133  RH  043%=      5-min Rain = 0
KME1 140603Z 20005KT 27/13 A2998 RMK A01 T02690133  RH  043%=      5-min Rain = 0
KME1 140604Z 19005KT 27/13 A2998 RMK A01 T02700134  RH  043%=      5-min Rain = 0
KME1 140605Z 19006KT 27/13 A2998 RMK A01 T02720134  RH  043%=      5-min Rain = 0
KME1 140606Z 19006KT 27/13 A2998 RMK A01 T02730134  RH  042%=      5-min Rain = 0
KME1 140607Z 19005KT 28/14 A2998 RMK A01 T02750135  RH  042%=      5-min Rain = 0
KME1 140608Z 20006KT 28/14 A2998 RMK A01 T02760135  RH  042%=      5-min Rain = 0
KME1 140609Z 19005KT 28/14 A2998 RMK A01 T02760135  RH  042%=      5-min Rain = 0
KME1 140610Z 19006KT 28/14 A2998 RMK A01 T02770135  RH  042%=      5-min Rain = 0
KME1 140611Z 20006KT 28/14 A2998 RMK A01 T02780135  RH  041%=      5-min Rain = 0
KME1 140612Z 20006KT 28/14 A2998 RMK A01 T02790135  RH  041%=      5-min Rain = 0
KME1 140613Z 20006KT 28/14 A2998 RMK A01 T02790135  RH  041%=      5-min Rain = 0
KME1 140614Z 20006KT 28/14 A2998 RMK A01 T02790135  RH  041%=      5-min Rain = 0
KME1 140615Z 20005KT 28/14 A2998 RMK A01 T02790135  RH  041%=      5-min Rain = 0
KME1 140616Z 20006KT 28/14 A2998 RMK A01 T02780135  RH  041%=      5-min Rain = 0
KME1 140617Z 20005KT 28/14 A2998 RMK A01 T02770135  RH  042%=      5-min Rain = 0
KME1 140618Z 21005KT 28/14 A2998 RMK A01 T02760135  RH  042%=      5-min Rain = 0
KME1 140619Z 21004KT 28/14 A2998 RMK A01 T02750135  RH  042%=      5-min Rain = 0
KME1 140620Z 20004KT 27/13 A2998 RMK A01 T02740134  RH  042%=      5-min Rain = 0
KME1 140621Z 20004KT 27/13 A2998 RMK A01 T02720134  RH  043%=      5-min Rain = 0
KME1 140622Z 21004KT 27/13 A2998 RMK A01 T02710134  RH  043%=      5-min Rain = 0
KME1 140623Z 21005KT 27/13 A2998 RMK A01 T02690134  RH  043%=      5-min Rain = 0
KME1 140624Z 21004KT 27/13 A2998 RMK A01 T02680134  RH  043%=      5-min Rain = 0
KME1 140625Z 20005KT 27/13 A2998 RMK A01 T02670134  RH  044%=      5-min Rain = 0
KME1 140626Z 20005KT 27/13 A2998 RMK A01 T02670133  RH  044%=      5-min Rain = 0
KME1 140627Z 20004KT 27/13 A2998 RMK A01 T02660134  RH  044%=      5-min Rain = 0
KME1 140628Z 19004KT 27/13 A2998 RMK A01 T02660134  RH  044%=      5-min Rain = 0
KME1 140629Z 19004KT 27/13 A2998 RMK A01 T02660134  RH  044%=      5-min Rain = 0
KME1 140630Z 19004KT 27/13 A2998 RMK A01 T02670134  RH  044%=      5-min Rain = 0
KME1 140631Z 19004KT 27/13 A2998 RMK A01 T02670134  RH  044%=      5-min Rain = 0
KME1 140632Z 19004KT 27/13 A2998 RMK A01 T02660134  RH  044%=      5-min Rain = 0
KME1 140633Z 19004KT 27/13 A2998 RMK A01 T02660134  RH  044%=      5-min Rain = 0
KME1 140634Z 18004KT 27/13 A2998 RMK A01 T02660134  RH  044%=      5-min Rain = 0
KME1 140635Z 18004KT 27/13 A2998 RMK A01 T02660134  RH  044%=      5-min Rain = 0
KME1 140636Z 18004KT 27/14 A2998 RMK A01 T02670135  RH  044%=      5-min Rain = 0
KME1 140637Z 18004KT 27/14 A2998 RMK A01 T02670135  RH  044%=      5-min Rain = 0
KME1 140638Z 18003KT 27/14 A2998 RMK A01 T02670135  RH  044%=      5-min Rain = 0
KME1 140639Z 19003KT 27/14 A2998 RMK A01 T02670135  RH  044%=      5-min Rain = 0
KME1 140640Z 18003KT 27/14 A2998 RMK A01 T02680135  RH  044%=      5-min Rain = 0
KME1 140641Z 19003KT 27/14 A2998 RMK A01 T02670135  RH  044%=      5-min Rain = 0
KME1 140642Z 20003KT 27/14 A2998 RMK A01 T02680136  RH  044%=      5-min Rain = 0
KME1 140643Z 20004KT 27/14 A2998 RMK A01 T02680136  RH  044%=      5-min Rain = 0
KME1 140644Z 21004KT 27/14 A2998 RMK A01 T02670136  RH  044%=      5-min Rain = 0
KME1 140645Z 21004KT 27/14 A2998 RMK A01 T02670136  RH  044%=      5-min Rain = 0
KME1 140646Z 21004KT 27/14 A2998 RMK A01 T02670136  RH  044%=      5-min Rain = 0
KME1 140647Z 21004KT 27/14 A2998 RMK A01 T02670136  RH  044%=      5-min Rain = 0
KME1 140648Z 21004KT 27/14 A2998 RMK A01 T02670136  RH  044%=      5-min Rain = 0
KME1 140649Z 21004KT 27/14 A2998 RMK A01 T02670136  RH  044%=      5-min Rain = 0
KME1 140650Z 21004KT 27/14 A2998 RMK A01 T02660136  RH  045%=      5-min Rain = 0
KME1 140651Z 21004KT 27/14 A2998 RMK A01 T02650136  RH  045%=      5-min Rain = 0
KME1 140652Z 21004KT 26/14 A2998 RMK A01 T02640135  RH  045%=      5-min Rain = 0
KME1 140653Z 21005KT 26/14 A2998 RMK A01 T02640135  RH  045%=      5-min Rain = 0
KME1 140654Z 21005KT 26/14 A2998 RMK A01 T02630135  RH  045%=      5-min Rain = 0
KME1 140655Z 21005KT 26/14 A2998 RMK A01 T02630135  RH  045%=      5-min Rain = 0
KME1 140656Z 21005KT 26/14 A2998 RMK A01 T02630135  RH  045%=      5-min Rain = 0
KME1 140657Z 20005KT 26/14 A2998 RMK A01 T02640135  RH  045%=      5-min Rain = 0
KME1 140658Z 20004KT 26/14 A2998 RMK A01 T02630135  RH  045%=      5-min Rain = 0
KME1 140659Z 20005KT 26/14 A2998 RMK A01 T02630135  RH  045%=      5-min Rain = 0
KME1 140700Z 21004KT 26/14 A2998 RMK A01 T02630135  RH  045%=      5-min Rain = 0
KME1 140701Z 21005KT 26/14 A2998 RMK A01 T02640135  RH  045%=      5-min Rain = 0
KME1 140702Z 21004KT 26/14 A2998 RMK A01 T02640136  RH  045%=      5-min Rain = 0
KME1 140703Z 21004KT 26/14 A2998 RMK A01 T02630135  RH  045%=      5-min Rain = 0
KME1 140704Z 21004KT 26/14 A2998 RMK A01 T02620135  RH  045%=      5-min Rain = 0
KME1 140705Z 21005KT 26/14 A2998 RMK A01 T02620135  RH  046%=      5-min Rain = 0
KME1 140706Z 20005KT 26/14 A2998 RMK A01 T02610135  RH  046%=      5-min Rain = 0
KME1 140707Z 20004KT 26/14 A2998 RMK A01 T02610135  RH  046%=      5-min Rain = 0
KME1 140708Z 21004KT 26/14 A2998 RMK A01 T02620135  RH  046%=      5-min Rain = 0
KME1 140709Z 20005KT 26/14 A2998 RMK A01 T02620135  RH  045%=      5-min Rain = 0
KME1 140710Z 20005KT 26/14 A2998 RMK A01 T02620135  RH  045%=      5-min Rain = 0
KME1 140711Z 20005KT 26/14 A2998 RMK A01 T02630136  RH  046%=      5-min Rain = 0
KME1 140712Z 20004KT 26/14 A2998 RMK A01 T02620136  RH  046%=      5-min Rain = 0
KME1 140713Z 20005KT 26/14 A2998 RMK A01 T02630136  RH  045%=      5-min Rain = 0
KME1 140714Z 20005KT 26/14 A2998 RMK A01 T02620136  RH  046%=      5-min Rain = 0
KME1 140715Z 19005KT 26/14 A2998 RMK A01 T02630136  RH  046%=      5-min Rain = 0
KME1 140716Z 20005KT 26/14 A2998 RMK A01 T02630136  RH  046%=      5-min Rain = 0
KME1 140717Z 19005KT 26/14 A2998 RMK A01 T02630136  RH  045%=      5-min Rain = 0
KME1 140718Z 19005KT 26/14 A2998 RMK A01 T02640136  RH  045%=      5-min Rain = 0
KME1 140719Z 19005KT 26/14 A2998 RMK A01 T02640137  RH  046%=      5-min Rain = 0
KME1 140720Z 18006KT 26/14 A2998 RMK A01 T02640137  RH  045%=      5-min Rain = 0
KME1 140721Z 18006KT 27/14 A2998 RMK A01 T02650138  RH  045%=      5-min Rain = 0
KME1 140722Z 18006KT 27/14 A2998 RMK A01 T02660138  RH  045%=      5-min Rain = 0
KME1 140723Z 18006KT 27/14 A2998 RMK A01 T02660138  RH  045%=      5-min Rain = 0
KME1 140724Z 18006KT 27/14 A2998 RMK A01 T02670139  RH  045%=      5-min Rain = 0
KME1 140725Z 18007KT 27/14 A2997 RMK A01 T02680140  RH  045%=      5-min Rain = 0
KME1 140726Z 17007KT 27/14 A2997 RMK A01 T02700141  RH  045%=      5-min Rain = 0
KME1 140727Z 17008KT 27/14 A2997 RMK A01 T02720141  RH  045%=      5-min Rain = 0
KME1 140728Z 18009KT 27/14 A2997 RMK A01 T02730141  RH  044%=      5-min Rain = 0
KME1 140729Z 18009KT 27/14 A2997 RMK A01 T02740141  RH  044%=      5-min Rain = 0
KME1 140730Z 18009KT 28/14 A2997 RMK A01 T02750141  RH  044%=      5-min Rain = 0
KME1 140731Z 17011KT 28/14 A2997 RMK A01 T02760141  RH  044%=      5-min Rain = 0
KME1 140732Z 17010KT 28/14 A2997 RMK A01 T02770141  RH  043%=      5-min Rain = 0
KME1 140733Z 17011KT 28/14 A2997 RMK A01 T02780141  RH  043%=      5-min Rain = 0
KME1 140734Z 17010KT 28/14 A2997 RMK A01 T02780141  RH  043%=      5-min Rain = 0
KME1 140735Z 17012KT 28/14 A2997 RMK A01 T02780141  RH  043%=      5-min Rain = 0
KME1 140736Z 18012KT 28/14 A2996 RMK A01 T02780141  RH  043%=      5-min Rain = 0
KME1 140737Z 17012KT 28/14 A2996 RMK A01 T02790141  RH  043%=      5-min Rain = 0
KME1 140738Z 17013KT 28/14 A2996 RMK A01 T02790141  RH  043%=      5-min Rain = 0
KME1 140739Z 18012KT 28/14 A2996 RMK A01 T02800140  RH  042%=      5-min Rain = 0
KME1 140740Z 17013KT 28/14 A2996 RMK A01 T02800140  RH  042%=      5-min Rain = 0
KME1 140741Z 17013KT 28/14 A2996 RMK A01 T02800140  RH  042%=      5-min Rain = 0
KME1 140742Z 17012KT 28/14 A2996 RMK A01 T02800140  RH  042%=      5-min Rain = 0
KME1 140743Z 17013KT 28/14 A2996 RMK A01 T02800140  RH  042%=      5-min Rain = 0
KME1 140744Z 18013KT 28/14 A2996 RMK A01 T02800140  RH  042%=      5-min Rain = 0
KME1 140745Z 18012KT 28/14 A2996 RMK A01 T02800140  RH  042%=      5-min Rain = 0
KME1 140746Z 18011KT 28/14 A2996 RMK A01 T02790140  RH  042%=      5-min Rain = 0
KME1 140747Z 17012KT 28/14 A2996 RMK A01 T02790140  RH  042%=      5-min Rain = 0
KME1 140748Z 17012KT 28/14 A2996 RMK A01 T02790140  RH  042%=      5-min Rain = 0
KME1 140749Z 17011KT 28/14 A2996 RMK A01 T02790140  RH  042%=      5-min Rain = 0
KME1 140750Z 18013KT 28/14 A2996 RMK A01 T02790140  RH  043%=      5-min Rain = 0
KME1 140751Z 17010KT 28/14 A2996 RMK A01 T02780140  RH  043%=      5-min Rain = 0
KME1 140752Z 17011KT 28/14 A2996 RMK A01 T02780140  RH  043%=      5-min Rain = 0
KME1 140753Z 18012KT 28/14 A2996 RMK A01 T02780140  RH  043%=      5-min Rain = 0
KME1 140754Z 18012G17KT 28/14 A2996 RMK A01 T02780140  RH  043%=      5-min Rain = 0
KME1 140755Z 18011KT 28/14 A2996 RMK A01 T02780140  RH  043%=      5-min Rain = 0
KME1 140756Z 18009KT 28/14 A2996 RMK A01 T02780140  RH  043%=      5-min Rain = 0
KME1 140757Z 18012KT 28/14 A2996 RMK A01 T02780140  RH  043%=      5-min Rain = 0
KME1 140758Z 18009KT 28/14 A2996 RMK A01 T02780140  RH  043%=      5-min Rain = 0
KME1 140759Z 18009KT 28/14 A2996 RMK A01 T02770140  RH  043%=      5-min Rain = 0
KME1 140800Z 18009KT 28/14 A2996 RMK A01 T02760139  RH  043%=      5-min Rain = 0
KME1 140801Z 18010KT 28/14 A2996 RMK A01 T02760139  RH  043%=      5-min Rain = 0
KME1 140802Z 18012KT 28/14 A2996 RMK A01 T02760139  RH  043%=      5-min Rain = 0
KME1 140803Z 18010KT 28/14 A2996 RMK A01 T02770140  RH  043%=      5-min Rain = 0
KME1 140804Z 18011KT 28/14 A2996 RMK A01 T02770140  RH  043%=      5-min Rain = 0
KME1 140805Z 18011G16KT 28/14 A2996 RMK A01 T02770140  RH  043%=      5-min Rain = 0
KME1 140806Z 18011KT 28/14 A2996 RMK A01 T02780140  RH  043%=      5-min Rain = 0
KME1 140807Z 18011KT 28/14 A2996 RMK A01 T02780140  RH  043%=      5-min Rain = 0
KME1 140808Z 18011KT 28/14 A2996 RMK A01 T02780140  RH  043%=      5-min Rain = 0
KME1 140809Z 18011KT 28/14 A2996 RMK A01 T02780140  RH  043%=      5-min Rain = 0
KME1 140810Z 18010KT 28/14 A2996 RMK A01 T02780140  RH  043%=      5-min Rain = 0
KME1 140811Z 18010KT 28/14 A2996 RMK A01 T02780140  RH  043%=      5-min Rain = 0
KME1 140812Z 18009KT 28/14 A2996 RMK A01 T02780140  RH  043%=      5-min Rain = 0
KME1 140813Z 18010KT 28/14 A2996 RMK A01 T02780140  RH  043%=      5-min Rain = 0
KME1 140814Z 18009KT 28/14 A2996 RMK A01 T02780140  RH  043%=      5-min Rain = 0
KME1 140815Z 18008KT 28/14 A2996 RMK A01 T02780140  RH  043%=      5-min Rain = 0
KME1 140816Z 17008KT 28/14 A2996 RMK A01 T02770140  RH  043%=      5-min Rain = 0
KME1 140817Z 18008KT 28/14 A2996 RMK A01 T02770141  RH  043%=      5-min Rain = 0
KME1 140818Z 18010KT 28/14 A2996 RMK A01 T02770141  RH  043%=      5-min Rain = 0
KME1 140819Z 18009KT 28/14 A2996 RMK A01 T02770141  RH  043%=      5-min Rain = 0
KME1 140820Z 18009KT 28/14 A2996 RMK A01 T02780141  RH  043%=      5-min Rain = 0
KME1 140821Z 18009KT 28/14 A2996 RMK A01 T02780142  RH  043%=      5-min Rain = 0
KME1 140822Z 18010KT 28/14 A2996 RMK A01 T02780142  RH  043%=      5-min Rain = 0
KME1 140823Z 18008KT 28/14 A2996 RMK A01 T02780142  RH  043%=      5-min Rain = 0
KME1 140824Z 18010KT 28/14 A2996 RMK A01 T02780142  RH  043%=      5-min Rain = 0
KME1 140825Z 19012KT 28/14 A2996 RMK A01 T02780143  RH  044%=      5-min Rain = 0
KME1 140826Z 18010KT 28/14 A2996 RMK A01 T02790144  RH  043%=      5-min Rain = 0
KME1 140827Z 19009KT 28/14 A2996 RMK A01 T02790144  RH  043%=      5-min Rain = 0
KME1 140828Z 19011KT 28/14 A2996 RMK A01 T02790144  RH  044%=      5-min Rain = 0
KME1 140829Z 18011KT 28/14 A2996 RMK A01 T02790144  RH  044%=      5-min Rain = 0
KME1 140830Z 18012KT 28/14 A2996 RMK A01 T02790144  RH  044%=      5-min Rain = 0
KME1 140831Z 18011KT 28/14 A2996 RMK A01 T02790144  RH  044%=      5-min Rain = 0
KME1 140832Z 18011KT 28/14 A2996 RMK A01 T02790144  RH  044%=      5-min Rain = 0
KME1 140833Z 18012KT 28/14 A2996 RMK A01 T02790144  RH  044%=      5-min Rain = 0
KME1 140834Z 18012KT 28/14 A2996 RMK A01 T02790144  RH  044%=      5-min Rain = 0
KME1 140835Z 18012KT 28/14 A2996 RMK A01 T02790144  RH  044%=      5-min Rain = 0
KME1 140836Z 18015G20KT 28/15 A2996 RMK A01 T02790145  RH  044%=      5-min Rain = 0
KME1 140837Z 18012KT 28/14 A2996 RMK A01 T02790144  RH  044%=      5-min Rain = 0
KME1 140838Z 18012G17KT 28/15 A2996 RMK A01 T02800145  RH  044%=      5-min Rain = 0
KME1 140839Z 18011KT 28/15 A2996 RMK A01 T02790145  RH  044%=      5-min Rain = 0
KME1 140840Z 18010KT 28/15 A2996 RMK A01 T02790145  RH  044%=      5-min Rain = 0
KME1 140841Z 18011KT 28/15 A2996 RMK A01 T02780145  RH  044%=      5-min Rain = 0
KME1 140842Z 18012KT 28/15 A2996 RMK A01 T02780145  RH  044%=      5-min Rain = 0
KME1 140843Z 18012KT 28/15 A2996 RMK A01 T02770145  RH  044%=      5-min Rain = 0
KME1 140844Z 18011KT 28/15 A2996 RMK A01 T02770145  RH  044%=      5-min Rain = 0
KME1 140845Z 18013KT 28/15 A2996 RMK A01 T02780145  RH  044%=      5-min Rain = 0
KME1 140846Z 18010KT 28/15 A2996 RMK A01 T02770145  RH  044%=      5-min Rain = 0
KME1 140847Z 19009G15KT 28/15 A2996 RMK A01 T02770145  RH  044%=      5-min Rain = 0
KME1 140848Z 17012KT 28/15 A2996 RMK A01 T02770145  RH  044%=      5-min Rain = 0
KME1 140849Z 17013KT 28/15 A2996 RMK A01 T02770145  RH  044%=      5-min Rain = 0
KME1 140850Z 18011KT 28/14 A2996 RMK A01 T02770144  RH  044%=      5-min Rain = 0
KME1 140851Z 18011KT 28/15 A2996 RMK A01 T02770145  RH  044%=      5-min Rain = 0
KME1 140852Z 18010KT 28/15 A2996 RMK A01 T02770145  RH  044%=      5-min Rain = 0
KME1 140853Z 18012G18KT 28/15 A2996 RMK A01 T02760145  RH  045%=      5-min Rain = 0
KME1 140854Z 18012KT 28/15 A2996 RMK A01 T02760145  RH  045%=      5-min Rain = 0
KME1 140855Z 18012KT 28/15 A2996 RMK A01 T02760145  RH  045%=      5-min Rain = 0
KME1 140856Z 18012KT 28/15 A2996 RMK A01 T02760145  RH  045%=      5-min Rain = 0
KME1 140857Z 18011KT 28/14 A2996 RMK A01 T02760144  RH  045%=      5-min Rain = 0
KME1 140858Z 18010KT 28/15 A2996 RMK A01 T02760145  RH  045%=      5-min Rain = 0
KME1 140859Z 18014KT 28/15 A2996 RMK A01 T02760145  RH  045%=      5-min Rain = 0
KME1 140900Z 18013KT 28/15 A2996 RMK A01 T02760145  RH  045%=      5-min Rain = 0
KME1 140901Z 18013KT 28/14 A2996 RMK A01 T02760144  RH  044%=      5-min Rain = 0
KME1 140902Z 18012KT 28/14 A2996 RMK A01 T02770144  RH  044%=      5-min Rain = 0
KME1 140903Z 18015KT 28/15 A2996 RMK A01 T02770145  RH  044%=      5-min Rain = 0
KME1 140904Z 18012G17KT 28/15 A2996 RMK A01 T02770145  RH  044%=      5-min Rain = 0
KME1 140905Z 18013KT 28/14 A2996 RMK A01 T02770144  RH  044%=      5-min Rain = 0
KME1 140906Z 18014KT 28/15 A2996 RMK A01 T02770145  RH  044%=      5-min Rain = 0
KME1 140907Z 18011KT 28/15 A2996 RMK A01 T02770145  RH  044%=      5-min Rain = 0
KME1 140908Z 18012KT 28/15 A2996 RMK A01 T02770145  RH  044%=      5-min Rain = 0
KME1 140909Z 18013KT 28/15 A2996 RMK A01 T02760145  RH  044%=      5-min Rain = 0
KME1 140910Z 18013KT 28/15 A2996 RMK A01 T02760145  RH  044%=      5-min Rain = 0
KME1 140911Z 18012G17KT 28/15 A2996 RMK A01 T02770145  RH  044%=      5-min Rain = 0
KME1 140912Z 18014KT 28/15 A2996 RMK A01 T02760145  RH  045%=      5-min Rain = 0
KME1 140913Z 18013KT 28/14 A2996 RMK A01 T02760144  RH  045%=      5-min Rain = 0
KME1 140914Z 18012KT 28/15 A2996 RMK A01 T02770145  RH  044%=      5-min Rain = 0
KME1 140915Z 18012KT 28/15 A2996 RMK A01 T02760145  RH  044%=      5-min Rain = 0
KME1 140916Z 19011KT 28/15 A2996 RMK A01 T02760145  RH  045%=      5-min Rain = 0
KME1 140917Z 18012KT 28/15 A2996 RMK A01 T02760145  RH  045%=      5-min Rain = 0
KME1 140918Z 19015KT 28/15 A2996 RMK A01 T02750145  RH  045%=      5-min Rain = 0
KME1 140919Z 18011KT 28/15 A2996 RMK A01 T02760145  RH  045%=      5-min Rain = 0
KME1 140920Z 18012KT 28/15 A2996 RMK A01 T02760145  RH  045%=      5-min Rain = 0
KME1 140921Z 18014KT 28/15 A2996 RMK A01 T02760145  RH  045%=      5-min Rain = 0
KME1 140922Z 19014KT 28/15 A2996 RMK A01 T02760145  RH  045%=      5-min Rain = 0
KME1 140923Z 19012KT 28/15 A2996 RMK A01 T02760145  RH  045%=      5-min Rain = 0
KME1 140924Z 18013KT 28/15 A2996 RMK A01 T02760145  RH  045%=      5-min Rain = 0
KME1 140925Z 18017KT 28/15 A2995 RMK A01 T02760145  RH  045%=      5-min Rain = 0
KME1 140926Z 18013KT 28/15 A2996 RMK A01 T02770145  RH  044%=      5-min Rain = 0
KME1 140927Z 18012G17KT 28/15 A2996 RMK A01 T02770145  RH  045%=      5-min Rain = 0
KME1 140928Z 18012KT 28/15 A2995 RMK A01 T02760146  RH  045%=      5-min Rain = 0
KME1 140929Z 18011KT 28/15 A2996 RMK A01 T02760146  RH  045%=      5-min Rain = 0
KME1 140930Z 19012KT 28/15 A2995 RMK A01 T02760146  RH  045%=      5-min Rain = 0
KME1 140931Z 18013KT 28/15 A2995 RMK A01 T02760146  RH  045%=      5-min Rain = 0
KME1 140932Z 18014G21KT 28/15 A2995 RMK A01 T02760146  RH  045%=      5-min Rain = 0
KME1 140933Z 18013KT 28/15 A2995 RMK A01 T02760145  RH  045%=      5-min Rain = 0
KME1 140934Z 18013KT 28/15 A2995 RMK A01 T02760146  RH  045%=      5-min Rain = 0
KME1 140935Z 18013KT 28/15 A2995 RMK A01 T02760146  RH  045%=      5-min Rain = 0
KME1 140936Z 19015KT 28/15 A2995 RMK A01 T02760146  RH  045%=      5-min Rain = 0
KME1 140937Z 19010G19KT 28/15 A2995 RMK A01 T02760146  RH  045%=      5-min Rain = 0
KME1 140938Z 19012KT 28/15 A2995 RMK A01 T02760146  RH  045%=      5-min Rain = 0
KME1 140939Z 18012KT 28/15 A2995 RMK A01 T02760146  RH  045%=      5-min Rain = 0
KME1 140940Z 18012KT 28/15 A2995 RMK A01 T02750146  RH  045%=      5-min Rain = 0
KME1 140941Z 18011KT 28/15 A2995 RMK A01 T02750146  RH  045%=      5-min Rain = 0
KME1 140942Z 19013KT 28/15 A2995 RMK A01 T02750146  RH  045%=      5-min Rain = 0
KME1 140943Z 18014KT 28/15 A2995 RMK A01 T02750146  RH  045%=      5-min Rain = 0
KME1 140944Z 19011KT 28/15 A2995 RMK A01 T02750147  RH  045%=      5-min Rain = 0
KME1 140945Z 19012KT 28/15 A2995 RMK A01 T02750147  RH  045%=      5-min Rain = 0
KME1 140946Z 19014G19KT 28/15 A2995 RMK A01 T02750147  RH  046%=      5-min Rain = 0
KME1 140947Z 19013KT 28/15 A2995 RMK A01 T02750147  RH  046%=      5-min Rain = 0
KME1 140948Z 18011KT 28/15 A2995 RMK A01 T02750147  RH  045%=      5-min Rain = 0
KME1 140949Z 18012KT 28/15 A2995 RMK A01 T02750148  RH  046%=      5-min Rain = 0
KME1 140950Z 18014KT 28/15 A2995 RMK A01 T02750148  RH  046%=      5-min Rain = 0
KME1 140951Z 19011KT 28/15 A2995 RMK A01 T02750148  RH  046%=      5-min Rain = 0
KME1 140952Z 18014G19KT 28/15 A2995 RMK A01 T02750148  RH  046%=      5-min Rain = 0
KME1 140953Z 19014G19KT 28/15 A2995 RMK A01 T02750148  RH  046%=      5-min Rain = 0
KME1 140954Z 19015KT 28/15 A2995 RMK A01 T02750149  RH  046%=      5-min Rain = 0
KME1 140955Z 18013KT 28/15 A2995 RMK A01 T02750148  RH  046%=      5-min Rain = 0
KME1 140956Z 19015KT 28/15 A2995 RMK A01 T02750148  RH  046%=      5-min Rain = 0
KME1 140957Z 19012G17KT 28/15 A2995 RMK A01 T02750149  RH  046%=      5-min Rain = 0
KME1 140958Z 18013KT 28/15 A2995 RMK A01 T02750148  RH  046%=      5-min Rain = 0
KME1 140959Z 18014KT 28/15 A2995 RMK A01 T02750149  RH  046%=      5-min Rain = 0
KME1 141000Z 19015KT 28/15 A2995 RMK A01 T02750149  RH  046%=      5-min Rain = 0
KME1 141001Z 18013KT 28/15 A2995 RMK A01 T02750149  RH  046%=      5-min Rain = 0
KME1 141002Z 19012KT 28/15 A2995 RMK A01 T02750149  RH  046%=      5-min Rain = 0
KME1 141003Z 19013KT 27/15 A2995 RMK A01 T02740149  RH  046%=      5-min Rain = 0
KME1 141004Z 18014KT 27/15 A2995 RMK A01 T02740149  RH  046%=      5-min Rain = 0
KME1 141005Z 19014KT 27/15 A2995 RMK A01 T02740149  RH  046%=      5-min Rain = 0
KME1 141006Z 18011KT 27/15 A2995 RMK A01 T02740149  RH  046%=      5-min Rain = 0
KME1 141007Z 18013KT 27/15 A2995 RMK A01 T02740149  RH  046%=      5-min Rain = 0
KME1 141008Z 19015KT 27/15 A2995 RMK A01 T02740149  RH  046%=      5-min Rain = 0
KME1 141009Z 18014KT 27/15 A2995 RMK A01 T02740149  RH  047%=      5-min Rain = 0
KME1 141010Z 18012KT 27/15 A2995 RMK A01 T02740149  RH  047%=      5-min Rain = 0
KME1 141011Z 19015KT 27/15 A2995 RMK A01 T02740149  RH  047%=      5-min Rain = 0
KME1 141012Z 18013KT 27/15 A2995 RMK A01 T02740149  RH  047%=      5-min Rain = 0
KME1 141013Z 19012KT 27/15 A2995 RMK A01 T02730149  RH  047%=      5-min Rain = 0
KME1 141014Z 20012KT 27/15 A2995 RMK A01 T02730149  RH  047%=      5-min Rain = 0
KME1 141015Z 18011KT 27/15 A2995 RMK A01 T02720149  RH  047%=      5-min Rain = 0
KME1 141016Z 19012KT 27/15 A2995 RMK A01 T02720150  RH  047%=      5-min Rain = 0
KME1 141017Z 18013KT 27/15 A2995 RMK A01 T02720150  RH  047%=      5-min Rain = 0
KME1 141018Z 19014G19KT 27/15 A2995 RMK A01 T02720150  RH  047%=      5-min Rain = 0
KME1 141019Z 19013KT 27/15 A2995 RMK A01 T02720150  RH  047%=      5-min Rain = 0
KME1 141020Z 19014KT 27/15 A2995 RMK A01 T02720150  RH  047%=      5-min Rain = 0
KME1 141021Z 19014KT 27/15 A2995 RMK A01 T02720150  RH  047%=      5-min Rain = 0
KME1 141022Z 19013KT 27/15 A2995 RMK A01 T02720150  RH  047%=      5-min Rain = 0
KME1 141023Z 18012KT 27/15 A2995 RMK A01 T02720150  RH  047%=      5-min Rain = 0
KME1 141024Z 19012KT 27/15 A2995 RMK A01 T02720150  RH  047%=      5-min Rain = 0
KME1 141025Z 19011KT 27/15 A2995 RMK A01 T02720150  RH  047%=      5-min Rain = 0
KME1 141026Z 19012KT 27/15 A2995 RMK A01 T02710149  RH  047%=      5-min Rain = 0
KME1 141027Z 19010KT 27/15 A2995 RMK A01 T02710149  RH  047%=      5-min Rain = 0
KME1 141028Z 19012KT 27/15 A2996 RMK A01 T02710150  RH  047%=      5-min Rain = 0
KME1 141029Z 19009KT 27/15 A2996 RMK A01 T02700149  RH  047%=      5-min Rain = 0
KME1 141030Z 19012KT 27/15 A2996 RMK A01 T02700150  RH  048%=      5-min Rain = 0
KME1 141031Z 19013KT 27/15 A2996 RMK A01 T02700149  RH  048%=      5-min Rain = 0
KME1 141032Z 19011KT 27/15 A2996 RMK A01 T02700150  RH  048%=      5-min Rain = 0
KME1 141033Z 19010KT 27/15 A2996 RMK A01 T02700149  RH  048%=      5-min Rain = 0
KME1 141034Z 19008KT 27/15 A2996 RMK A01 T02690149  RH  048%=      5-min Rain = 0
KME1 141035Z 19008KT 27/15 A2996 RMK A01 T02690149  RH  048%=      5-min Rain = 0
KME1 141036Z 19008KT 27/15 A2996 RMK A01 T02680149  RH  048%=      5-min Rain = 0
KME1 141037Z 19010KT 27/15 A2996 RMK A01 T02670149  RH  048%=      5-min Rain = 0
KME1 141038Z 20010KT 27/15 A2996 RMK A01 T02670149  RH  048%=      5-min Rain = 0
KME1 141039Z 18009KT 27/15 A2996 RMK A01 T02670149  RH  048%=      5-min Rain = 0
KME1 141040Z 18010KT 27/15 A2996 RMK A01 T02670149  RH  048%=      5-min Rain = 0
KME1 141041Z 19008KT 27/15 A2996 RMK A01 T02670149  RH  048%=      5-min Rain = 0
KME1 141042Z 19009KT 27/15 A2996 RMK A01 T02660149  RH  049%=      5-min Rain = 0
KME1 141043Z 19008KT 27/15 A2996 RMK A01 T02660149  RH  049%=      5-min Rain = 0
KME1 141044Z 19010KT 27/15 A2996 RMK A01 T02650149  RH  049%=      5-min Rain = 0
KME1 141045Z 19012KT 27/15 A2996 RMK A01 T02650149  RH  049%=      5-min Rain = 0
KME1 141046Z 19009KT 27/15 A2996 RMK A01 T02660149  RH  049%=      5-min Rain = 0
KME1 141047Z 19010KT 27/15 A2996 RMK A01 T02660149  RH  049%=      5-min Rain = 0
KME1 141048Z 19009KT 27/15 A2996 RMK A01 T02660149  RH  049%=      5-min Rain = 0
KME1 141049Z 19014KT 27/15 A2996 RMK A01 T02660149  RH  049%=      5-min Rain = 0
KME1 141050Z 18013KT 27/15 A2996 RMK A01 T02660150  RH  049%=      5-min Rain = 0
KME1 141051Z 19011KT 27/15 A2996 RMK A01 T02660150  RH  049%=      5-min Rain = 0
KME1 141052Z 19013G18KT 27/15 A2996 RMK A01 T02660150  RH  049%=      5-min Rain = 0
KME1 141053Z 19013KT 27/15 A2996 RMK A01 T02660150  RH  049%=      5-min Rain = 0
KME1 141054Z 18012KT 27/15 A2996 RMK A01 T02660150  RH  049%=      5-min Rain = 0
KME1 141055Z 19010KT 27/15 A2996 RMK A01 T02660150  RH  049%=      5-min Rain = 0
KME1 141056Z 19012KT 27/15 A2996 RMK A01 T02650150  RH  049%=      5-min Rain = 0
KME1 141057Z 19010KT 27/15 A2996 RMK A01 T02650151  RH  049%=      5-min Rain = 0
KME1 141058Z 19013KT 27/15 A2996 RMK A01 T02650151  RH  050%=      5-min Rain = 0
KME1 141059Z 19009KT 26/15 A2996 RMK A01 T02640151  RH  050%=      5-min Rain = 0
KME1 141100Z 19012KT 26/15 A2996 RMK A01 T02640151  RH  050%=      5-min Rain = 0
KME1 141101Z 19009KT 26/15 A2997 RMK A01 T02640151  RH  050%=      5-min Rain = 0
KME1 141102Z 19008KT 26/15 A2997 RMK A01 T02640151  RH  050%=      5-min Rain = 0
KME1 141103Z 19012KT 26/15 A2996 RMK A01 T02630151  RH  050%=      5-min Rain = 0
KME1 141104Z 19010KT 26/15 A2997 RMK A01 T02630151  RH  050%=      5-min Rain = 0
KME1 141105Z 19010KT 26/15 A2997 RMK A01 T02630151  RH  050%=      5-min Rain = 0
KME1 141106Z 19010KT 26/15 A2997 RMK A01 T02630151  RH  050%=      5-min Rain = 0
KME1 141107Z 19009KT 26/15 A2997 RMK A01 T02630151  RH  050%=      5-min Rain = 0
KME1 141108Z 19008KT 26/15 A2997 RMK A01 T02620151  RH  050%=      5-min Rain = 0
KME1 141109Z 19009KT 26/15 A2997 RMK A01 T02620151  RH  051%=      5-min Rain = 0
KME1 141110Z 19007KT 26/15 A2997 RMK A01 T02610151  RH  051%=      5-min Rain = 0
KME1 141111Z 19011KT 26/15 A2997 RMK A01 T02610152  RH  051%=      5-min Rain = 0
KME1 141112Z 19010KT 26/15 A2997 RMK A01 T02610152  RH  051%=      5-min Rain = 0
KME1 141113Z 19009KT 26/15 A2997 RMK A01 T02620152  RH  051%=      5-min Rain = 0
KME1 141114Z 18008KT 26/15 A2997 RMK A01 T02620152  RH  051%=      5-min Rain = 0
KME1 141115Z 19011KT 26/15 A2997 RMK A01 T02610152  RH  051%=      5-min Rain = 0
KME1 141116Z 19009KT 26/15 A2997 RMK A01 T02610152  RH  051%=      5-min Rain = 0
KME1 141117Z 19007KT 26/15 A2997 RMK A01 T02610152  RH  051%=      5-min Rain = 0
KME1 141118Z 19007KT 26/15 A2997 RMK A01 T02600152  RH  051%=      5-min Rain = 0
KME1 141119Z 19010KT 26/15 A2997 RMK A01 T02600152  RH  051%=      5-min Rain = 0
KME1 141120Z 19007KT 26/15 A2997 RMK A01 T02600152  RH  051%=      5-min Rain = 0
KME1 141121Z 19007KT 26/15 A2997 RMK A01 T02600152  RH  051%=      5-min Rain = 0
KME1 141122Z 19007KT 26/15 A2997 RMK A01 T02600152  RH  052%=      5-min Rain = 0
KME1 141123Z 19007KT 26/15 A2997 RMK A01 T02590152  RH  052%=      5-min Rain = 0
KME1 141124Z 19009G15KT 26/15 A2997 RMK A01 T02580153  RH  052%=      5-min Rain = 0
KME1 141125Z 19009KT 26/15 A2997 RMK A01 T02580153  RH  052%=      5-min Rain = 0
KME1 141126Z 19006KT 26/15 A2997 RMK A01 T02590153  RH  052%=      5-min Rain = 0
KME1 141127Z 19006KT 26/15 A2997 RMK A01 T02580153  RH  052%=      5-min Rain = 0
KME1 141128Z 19006KT 26/15 A2997 RMK A01 T02580153  RH  052%=      5-min Rain = 0
KME1 141129Z 19010KT 26/15 A2997 RMK A01 T02580154  RH  053%=      5-min Rain = 0
KME1 141130Z 19008KT 26/15 A2997 RMK A01 T02580154  RH  053%=      5-min Rain = 0
KME1 141131Z 19008KT 26/15 A2997 RMK A01 T02580154  RH  053%=      5-min Rain = 0
KME1 141132Z 18010KT 26/16 A2997 RMK A01 T02590155  RH  053%=      5-min Rain = 0
KME1 141133Z 19010KT 26/16 A2997 RMK A01 T02590156  RH  053%=      5-min Rain = 0
KME1 141134Z 19009KT 26/16 A2997 RMK A01 T02590156  RH  053%=      5-min Rain = 0
KME1 141135Z 18008KT 26/16 A2997 RMK A01 T02590156  RH  053%=      5-min Rain = 0
KME1 141136Z 19011KT 26/16 A2997 RMK A01 T02590157  RH  053%=      5-min Rain = 0
KME1 141137Z 19007KT 26/16 A2997 RMK A01 T02590157  RH  053%=      5-min Rain = 0
KME1 141138Z 19007KT 26/16 A2997 RMK A01 T02590157  RH  053%=      5-min Rain = 0
KME1 141139Z 19008KT 26/16 A2997 RMK A01 T02580157  RH  054%=      5-min Rain = 0
KME1 141140Z 19009KT 26/16 A2997 RMK A01 T02570157  RH  054%=      5-min Rain = 0
KME1 141141Z 19010G15KT 26/16 A2997 RMK A01 T02570157  RH  054%=      5-min Rain = 0
KME1 141142Z 18011KT 26/16 A2997 RMK A01 T02580158  RH  054%=      5-min Rain = 0
KME1 141143Z 19011KT 26/16 A2997 RMK A01 T02580158  RH  054%=      5-min Rain = 0
KME1 141144Z 19007KT 26/16 A2997 RMK A01 T02580158  RH  054%=      5-min Rain = 0
KME1 141145Z 19008KT 26/16 A2997 RMK A01 T02580158  RH  054%=      5-min Rain = 0
KME1 141146Z 19008KT 26/16 A2997 RMK A01 T02570158  RH  055%=      5-min Rain = 0
KME1 141147Z 19008KT 26/16 A2997 RMK A01 T02560158  RH  055%=      5-min Rain = 0
KME1 141148Z 19010KT 26/16 A2997 RMK A01 T02560159  RH  055%=      5-min Rain = 0
KME1 141149Z 19008KT 26/16 A2997 RMK A01 T02560159  RH  055%=      5-min Rain = 0
KME1 141150Z 19008KT 26/16 A2997 RMK A01 T02560159  RH  055%=      5-min Rain = 0
KME1 141151Z 19008KT 26/16 A2997 RMK A01 T02560160  RH  055%=      5-min Rain = 0
KME1 141152Z 19007KT 26/16 A2997 RMK A01 T02560160  RH  055%=      5-min Rain = 0
KME1 141153Z 19008KT 26/16 A2998 RMK A01 T02560160  RH  055%=      5-min Rain = 0
KME1 141154Z 19008KT 26/16 A2998 RMK A01 T02560160  RH  056%=      5-min Rain = 0
KME1 141155Z 19007KT 26/16 A2998 RMK A01 T02560161  RH  056%=      5-min Rain = 0
KME1 141156Z 19008KT 26/16 A2998 RMK A01 T02550160  RH  056%=      5-min Rain = 0
KME1 141157Z 19008KT 26/16 A2998 RMK A01 T02550161  RH  056%=      5-min Rain = 0
KME1 141158Z 19008KT 26/16 A2998 RMK A01 T02550161  RH  056%=      5-min Rain = 0
KME1 141159Z 19008KT 26/16 A2998 RMK A01 T02550161  RH  056%=      5-min Rain = 0
KME1 141200Z 19007KT 26/16 A2998 RMK A01 T02550161  RH  056%=      5-min Rain = 0
KME1 141201Z 20006KT 25/16 A2998 RMK A01 T02540161  RH  056%=      5-min Rain = 0
KME1 141202Z 19008KT 25/16 A2998 RMK A01 T02530160  RH  056%=      5-min Rain = 0
KME1 141203Z 19007KT 25/16 A2998 RMK A01 T02540161  RH  056%=      5-min Rain = 0
KME1 141204Z 19009KT 25/16 A2998 RMK A01 T02540161  RH  056%=      5-min Rain = 0
KME1 141205Z 20009KT 25/16 A2998 RMK A01 T02540161  RH  056%=      5-min Rain = 0
KME1 141206Z 19009KT 25/16 A2998 RMK A01 T02540161  RH  056%=      5-min Rain = 0
KME1 141207Z 19009KT 25/16 A2998 RMK A01 T02540161  RH  056%=      5-min Rain = 0
KME1 141208Z 20007KT 25/16 A2998 RMK A01 T02530161  RH  057%=      5-min Rain = 0
KME1 141209Z 19007KT 25/16 A2998 RMK A01 T02530161  RH  057%=      5-min Rain = 0
KME1 141210Z 19007KT 25/16 A2998 RMK A01 T02530161  RH  057%=      5-min Rain = 0
KME1 141211Z 19007KT 25/16 A2998 RMK A01 T02530161  RH  057%=      5-min Rain = 0
KME1 141212Z 20008KT 25/16 A2998 RMK A01 T02520161  RH  057%=      5-min Rain = 0
KME1 141213Z 19008KT 25/16 A2998 RMK A01 T02530162  RH  057%=      5-min Rain = 0
KME1 141214Z 20008KT 25/16 A2998 RMK A01 T02520161  RH  057%=      5-min Rain = 0
KME1 141215Z 20008KT 25/16 A2998 RMK A01 T02530161  RH  057%=      5-min Rain = 0
KME1 141216Z 19007KT 25/16 A2998 RMK A01 T02520161  RH  057%=      5-min Rain = 0
KME1 141217Z 20008KT 25/16 A2998 RMK A01 T02520162  RH  057%=      5-min Rain = 0
KME1 141218Z 19007KT 25/16 A2998 RMK A01 T02520162  RH  057%=      5-min Rain = 0
KME1 141219Z 19009KT 25/16 A2998 RMK A01 T02520162  RH  057%=      5-min Rain = 0
KME1 141220Z 20006KT 25/16 A2998 RMK A01 T02520162  RH  057%=      5-min Rain = 0
KME1 141221Z 19009KT 25/16 A2998 RMK A01 T02520162  RH  057%=      5-min Rain = 0
KME1 141222Z 20008KT 25/16 A2998 RMK A01 T02520162  RH  057%=      5-min Rain = 0
KME1 141223Z 20008KT 25/16 A2998 RMK A01 T02520162  RH  057%=      5-min Rain = 0
KME1 141224Z 20007KT 25/16 A2998 RMK A01 T02520162  RH  058%=      5-min Rain = 0
KME1 141225Z 20008KT 25/16 A2998 RMK A01 T02520162  RH  057%=      5-min Rain = 0
KME1 141226Z 19007KT 25/16 A2998 RMK A01 T02520163  RH  058%=      5-min Rain = 0
KME1 141227Z 19007KT 25/16 A2998 RMK A01 T02520163  RH  058%=      5-min Rain = 0
KME1 141228Z 19011KT 25/16 A2999 RMK A01 T02520163  RH  058%=      5-min Rain = 0
KME1 141229Z 20010KT 25/16 A2998 RMK A01 T02530164  RH  058%=      5-min Rain = 0
KME1 141230Z 19008KT 25/16 A2999 RMK A01 T02530164  RH  058%=      5-min Rain = 0
KME1 141231Z 19011KT 25/16 A2999 RMK A01 T02530164  RH  058%=      5-min Rain = 0
KME1 141232Z 19011KT 25/17 A2999 RMK A01 T02530165  RH  058%=      5-min Rain = 0
KME1 141233Z 18010KT 25/17 A2999 RMK A01 T02540165  RH  058%=      5-min Rain = 0
KME1 141234Z 19010KT 25/17 A2999 RMK A01 T02540165  RH  058%=      5-min Rain = 0
KME1 141235Z 20009KT 25/17 A2999 RMK A01 T02540165  RH  058%=      5-min Rain = 0
KME1 141236Z 19012G17KT 25/17 A2999 RMK A01 T02540165  RH  058%=      5-min Rain = 0
KME1 141237Z 19011KT 25/17 A2999 RMK A01 T02540166  RH  058%=      5-min Rain = 0
KME1 141238Z 20009G14KT 25/17 A2999 RMK A01 T02540166  RH  058%=      5-min Rain = 0
KME1 141239Z 19007KT 26/17 A2999 RMK A01 T02550166  RH  058%=      5-min Rain = 0
KME1 141240Z 19008KT 25/17 A2999 RMK A01 T02540167  RH  058%=      5-min Rain = 0
KME1 141241Z 19011KT 25/17 A2999 RMK A01 T02540167  RH  058%=      5-min Rain = 0
KME1 141242Z 19011KT 26/17 A2999 RMK A01 T02550167  RH  058%=      5-min Rain = 0
KME1 141243Z 19010KT 26/17 A2999 RMK A01 T02550168  RH  058%=      5-min Rain = 0
KME1 141244Z 20010G15KT 26/17 A2999 RMK A01 T02550168  RH  058%=      5-min Rain = 0
KME1 141245Z 19011KT 26/17 A2999 RMK A01 T02550168  RH  059%=      5-min Rain = 0
KME1 141246Z 19010KT 26/17 A2999 RMK A01 T02560169  RH  059%=      5-min Rain = 0
KME1 141247Z 19009KT 26/17 A2999 RMK A01 T02560169  RH  059%=      5-min Rain = 0
KME1 141248Z 20012G17KT 26/17 A2999 RMK A01 T02560169  RH  059%=      5-min Rain = 0
KME1 141249Z 19011KT 26/17 A2999 RMK A01 T02560170  RH  059%=      5-min Rain = 0
KME1 141250Z 19013KT 26/17 A2999 RMK A01 T02560170  RH  059%=      5-min Rain = 0
KME1 141251Z 19009KT 26/17 A2999 RMK A01 T02570170  RH  059%=      5-min Rain = 0
KME1 141252Z 20010G15KT 26/17 A2999 RMK A01 T02570170  RH  059%=      5-min Rain = 0
KME1 141253Z 19011KT 26/17 A2999 RMK A01 T02570171  RH  059%=      5-min Rain = 0
KME1 141254Z 18011KT 26/17 A2999 RMK A01 T02570171  RH  059%=      5-min Rain = 0
KME1 141255Z 19010KT 26/17 A2999 RMK A01 T02570171  RH  059%=      5-min Rain = 0
KME1 141256Z 19010G16KT 26/17 A2999 RMK A01 T02580171  RH  059%=      5-min Rain = 0
KME1 141257Z 19010KT 26/17 A2999 RMK A01 T02580171  RH  059%=      5-min Rain = 0
KME1 141258Z 19007KT 26/17 A2999 RMK A01 T02580172  RH  059%=      5-min Rain = 0
KME1 141259Z 19009G14KT 26/17 A2999 RMK A01 T02580172  RH  059%=      5-min Rain = 0
KME1 141300Z 19007KT 26/17 A2999 RMK A01 T02590173  RH  059%=      5-min Rain = 0
KME1 141301Z 19009KT 26/17 A2999 RMK A01 T02590173  RH  059%=      5-min Rain = 0
KME1 141302Z 19010G15KT 26/17 A2999 RMK A01 T02590173  RH  059%=      5-min Rain = 0
KME1 141303Z 19011KT 26/17 A2999 RMK A01 T02600173  RH  059%=      5-min Rain = 0
KME1 141304Z 19009KT 26/17 A2999 RMK A01 T02600173  RH  059%=      5-min Rain = 0
KME1 141305Z 19009KT 26/17 A2999 RMK A01 T02600174  RH  059%=      5-min Rain = 0
KME1 141306Z 19010KT 26/17 A2999 RMK A01 T02600174  RH  059%=      5-min Rain = 0
KME1 141307Z 19010KT 26/17 A2999 RMK A01 T02610174  RH  059%=      5-min Rain = 0
KME1 141308Z 19014KT 26/17 A2999 RMK A01 T02610174  RH  059%=      5-min Rain = 0
KME1 141309Z 19011G17KT 26/17 A2999 RMK A01 T02610174  RH  059%=      5-min Rain = 0
KME1 141310Z 19011KT 26/18 A2999 RMK A01 T02620176  RH  059%=      5-min Rain = 0
KME1 141311Z 19009KT 26/18 A2999 RMK A01 T02620176  RH  059%=      5-min Rain = 0
KME1 141312Z 20008KT 26/18 A2999 RMK A01 T02630176  RH  059%=      5-min Rain = 0
KME1 141313Z 20010KT 26/18 A2999 RMK A01 T02630176  RH  059%=      5-min Rain = 0
KME1 141314Z 19008KT 26/18 A2999 RMK A01 T02630176  RH  059%=      5-min Rain = 0
KME1 141315Z 20010KT 26/18 A2999 RMK A01 T02640176  RH  059%=      5-min Rain = 0
KME1 141316Z 19011KT 26/18 A2999 RMK A01 T02640177  RH  059%=      5-min Rain = 0
KME1 141317Z 19009KT 26/18 A2999 RMK A01 T02640177  RH  059%=      5-min Rain = 0
KME1 141318Z 19010KT 26/18 A2999 RMK A01 T02640177  RH  059%=      5-min Rain = 0
KME1 141319Z 20008KT 27/18 A2999 RMK A01 T02650178  RH  059%=      5-min Rain = 0
KME1 141320Z 19008KT 27/18 A2999 RMK A01 T02660178  RH  059%=      5-min Rain = 0
KME1 141321Z 19009KT 27/18 A2999 RMK A01 T02660178  RH  058%=      5-min Rain = 0
KME1 141322Z 19010KT 27/18 A2999 RMK A01 T02670178  RH  058%=      5-min Rain = 0
KME1 141323Z 18011KT 27/18 A2999 RMK A01 T02670179  RH  058%=      5-min Rain = 0
KME1 141324Z 19012KT 27/18 A2999 RMK A01 T02670178  RH  058%=      5-min Rain = 0
KME1 141325Z 20010KT 27/18 A30 RMK A01 T02680179  RH  058%=      5-min Rain = 0
KME1 141326Z 20012KT 27/18 A30 RMK A01 T02680179  RH  058%=      5-min Rain = 0
KME1 141327Z 19011G16KT 27/18 A30 RMK A01 T02680179  RH  058%=      5-min Rain = 0
KME1 141328Z 19011KT 27/18 A30 RMK A01 T02680179  RH  058%=      5-min Rain = 0
KME1 141329Z 19013KT 27/18 A30 RMK A01 T02680179  RH  058%=      5-min Rain = 0
KME1 141330Z 20011G16KT 27/18 A30 RMK A01 T02690179  RH  058%=      5-min Rain = 0
KME1 141331Z 19009KT 27/18 A30 RMK A01 T02690180  RH  058%=      5-min Rain = 0
KME1 141332Z 19010G15KT 27/18 A30 RMK A01 T02700180  RH  058%=      5-min Rain = 0
KME1 141333Z 19008KT 27/18 A30 RMK A01 T02710180  RH  058%=      5-min Rain = 0
KME1 141334Z 20008KT 27/18 A30 RMK A01 T02720181  RH  058%=      5-min Rain = 0
KME1 141335Z 19010G15KT 27/18 A30 RMK A01 T02730181  RH  057%=      5-min Rain = 0
KME1 141336Z 19014KT 27/18 A2999 RMK A01 T02730181  RH  057%=      5-min Rain = 0
KME1 141337Z 19012KT 27/18 A2999 RMK A01 T02730181  RH  057%=      5-min Rain = 0
KME1 141338Z 19012G18KT 27/18 A2999 RMK A01 T02730181  RH  057%=      5-min Rain = 0
KME1 141339Z 19011G18KT 27/18 A2999 RMK A01 T02730181  RH  057%=      5-min Rain = 0
KME1 141340Z 19011G16KT 27/18 A2999 RMK A01 T02740181  RH  057%=      5-min Rain = 0
KME1 141341Z 19011KT 27/18 A2999 RMK A01 T02730181  RH  057%=      5-min Rain = 0
KME1 141342Z 19008KT 27/18 A2999 RMK A01 T02740181  RH  057%=      5-min Rain = 0
KME1 141343Z 19007KT 28/18 A2999 RMK A01 T02750182  RH  057%=      5-min Rain = 0
KME1 141344Z 19013KT 28/18 A2999 RMK A01 T02760182  RH  057%=      5-min Rain = 0
KME1 141345Z 19010KT 28/18 A2999 RMK A01 T02760182  RH  056%=      5-min Rain = 0
KME1 141346Z 19012KT 28/18 A2999 RMK A01 T02760182  RH  056%=      5-min Rain = 0
KME1 141347Z 19012KT 28/18 A2999 RMK A01 T02770182  RH  056%=      5-min Rain = 0
KME1 141348Z 19013KT 28/18 A2999 RMK A01 T02780182  RH  056%=      5-min Rain = 0
KME1 141349Z 18012KT 28/18 A2999 RMK A01 T02770182  RH  056%=      5-min Rain = 0
KME1 141350Z 19013KT 28/18 A30 RMK A01 T02780182  RH  056%=      5-min Rain = 0
KME1 141351Z 20011KT 28/18 A30 RMK A01 T02780182  RH  056%=      5-min Rain = 0
KME1 141352Z 18011KT 28/18 A30 RMK A01 T02780182  RH  056%=      5-min Rain = 0
KME1 141353Z 19011KT 28/18 A30 RMK A01 T02790182  RH  056%=      5-min Rain = 0
KME1 141354Z 19012KT 28/18 A30 RMK A01 T02800182  RH  055%=      5-min Rain = 0
KME1 141355Z 19012KT 28/18 A30 RMK A01 T02800183  RH  055%=      5-min Rain = 0
KME1 141356Z 19012KT 28/18 A30 RMK A01 T02800183  RH  056%=      5-min Rain = 0
KME1 141357Z 19010KT 28/18 A30 RMK A01 T02800183  RH  056%=      5-min Rain = 0
KME1 141358Z 19012KT 28/18 A30 RMK A01 T02800182  RH  055%=      5-min Rain = 0
KME1 141359Z 19010G15KT 28/18 A30 RMK A01 T02810183  RH  055%=      5-min Rain = 0
KME1 141400Z 18009G14KT 28/18 A30 RMK A01 T02820184  RH  055%=      5-min Rain = 0
KME1 141401Z 20013G18KT 28/18 A30 RMK A01 T02830183  RH  055%=      5-min Rain = 0
KME1 141402Z 20015G20KT 28/18 A30 RMK A01 T02840183  RH  054%=      5-min Rain = 0
KME1 141403Z 21013KT 28/18 A30 RMK A01 T02820183  RH  055%=      5-min Rain = 0
KME1 141404Z 20012KT 28/18 A30 RMK A01 T02830183  RH  055%=      5-min Rain = 0
KME1 141405Z 20013KT 28/18 A30 RMK A01 T02830182  RH  054%=      5-min Rain = 0
KME1 141406Z 21014KT 28/18 A30 RMK A01 T02830182  RH  054%=      5-min Rain = 0
KME1 141407Z 20013KT 28/18 A30 RMK A01 T02840183  RH  054%=      5-min Rain = 0
KME1 141408Z 19014KT 28/18 A30 RMK A01 T02830183  RH  054%=      5-min Rain = 0
KME1 141409Z 19011KT 28/18 A30 RMK A01 T02840183  RH  054%=      5-min Rain = 0
KME1 141410Z 19010KT 29/18 A30 RMK A01 T02850183  RH  054%=      5-min Rain = 0
KME1 141411Z 20010KT 29/18 A30 RMK A01 T02860183  RH  054%=      5-min Rain = 0
KME1 141412Z 19011KT 29/18 A30 RMK A01 T02870183  RH  053%=      5-min Rain = 0
KME1 141413Z 21008KT 29/18 A3001 RMK A01 T02880184  RH  053%=      5-min Rain = 0
KME1 141414Z 20008KT 29/18 A3001 RMK A01 T02910184  RH  053%=      5-min Rain = 0
KME1 141415Z 21008KT 29/18 A3001 RMK A01 T02920184  RH  052%=      5-min Rain = 0
KME1 141416Z 20009KT 29/18 A3001 RMK A01 T02930184  RH  052%=      5-min Rain = 0
KME1 141417Z 19011KT 29/18 A30 RMK A01 T02930184  RH  052%=      5-min Rain = 0
KME1 141418Z 19011KT 29/18 A3001 RMK A01 T02920183  RH  052%=      5-min Rain = 0
KME1 141419Z 19011KT 29/18 A3001 RMK A01 T02910183  RH  052%=      5-min Rain = 0
KME1 141420Z 20011KT 29/18 A3001 RMK A01 T02900183  RH  052%=      5-min Rain = 0
KME1 141421Z 19010KT 29/18 A3001 RMK A01 T02900182  RH  052%=      5-min Rain = 0
KME1 141422Z 20010KT 29/18 A3001 RMK A01 T02900183  RH  052%=      5-min Rain = 0
KME1 141423Z 21009KT 29/18 A3001 RMK A01 T02920183  RH  052%=      5-min Rain = 0
KME1 141424Z 19011KT 30/18 A3001 RMK A01 T02950183  RH  051%=      5-min Rain = 0
KME1 141425Z 20009KT 30/18 A3001 RMK A01 T02970183  RH  051%=      5-min Rain = 0
KME1 141426Z 19010KT 30/18 A3001 RMK A01 T02970183  RH  051%=      5-min Rain = 0
KME1 141427Z 21010G15KT 30/18 A3001 RMK A01 T02970183  RH  051%=      5-min Rain = 0
KME1 141428Z 22013KT 30/18 A3001 RMK A01 T02970183  RH  050%=      5-min Rain = 0
KME1 141429Z 21013KT 30/18 A3001 RMK A01 T02960182  RH  050%=      5-min Rain = 0
KME1 141430Z 21009KT 30/18 A3001 RMK A01 T02960182  RH  050%=      5-min Rain = 0
KME1 141431Z 21008KT 30/18 A3001 RMK A01 T02970183  RH  050%=      5-min Rain = 0
KME1 141432Z 21011KT 30/18 A3001 RMK A01 T02970183  RH  050%=      5-min Rain = 0
KME1 141433Z 21012KT 30/18 A3001 RMK A01 T02970183  RH  050%=      5-min Rain = 0
KME1 141434Z 22013KT 30/18 A3001 RMK A01 T02970183  RH  050%=      5-min Rain = 0
KME1 141435Z 21010KT 30/18 A3001 RMK A01 T02980183  RH  050%=      5-min Rain = 0
KME1 141436Z 20012KT 30/18 A3001 RMK A01 T02990183  RH  050%=      5-min Rain = 0
KME1 141437Z 20012KT 30/18 A3001 RMK A01 T02990182  RH  049%=      5-min Rain = 0
KME1 141438Z 19013G18KT 30/18 A3001 RMK A01 T02990181  RH  049%=      5-min Rain = 0
KME1 141439Z 20010KT 30/18 A3001 RMK A01 T02990182  RH  049%=      5-min Rain = 0
KME1 141440Z 20010KT 30/18 A3001 RMK A01 T03010182  RH  049%=      5-min Rain = 0
KME1 141441Z 19013KT 30/18 A3001 RMK A01 T03020181  RH  049%=      5-min Rain = 0
KME1 141442Z 20011KT 30/18 A3001 RMK A01 T03010182  RH  049%=      5-min Rain = 0
KME1 141443Z 21012KT 30/18 A3001 RMK A01 T03010181  RH  049%=      5-min Rain = 0
KME1 141444Z 20014KT 30/18 A3001 RMK A01 T03000181  RH  049%=      5-min Rain = 0
KME1 141445Z 21013KT 30/18 A30 RMK A01 T03010181  RH  049%=      5-min Rain = 0
KME1 141446Z 21013G18KT 30/18 A3001 RMK A01 T03010180  RH  048%=      5-min Rain = 0
KME1 141447Z 20016KT 30/18 A30 RMK A01 T03020180  RH  048%=      5-min Rain = 0
KME1 141448Z 21013KT 30/18 A30 RMK A01 T03020180  RH  048%=      5-min Rain = 0
KME1 141449Z 21012KT 30/18 A30 RMK A01 T03020181  RH  048%=      5-min Rain = 0
KME1 141450Z 21010G15KT 30/18 A30 RMK A01 T03030182  RH  048%=      5-min Rain = 0
KME1 141451Z 21011G18KT 31/18 A30 RMK A01 T03060183  RH  048%=      5-min Rain = 0
KME1 141452Z 21013KT 31/18 A30 RMK A01 T03090181  RH  047%=      5-min Rain = 0
KME1 141453Z 21011G17KT 31/18 A30 RMK A01 T03090182  RH  047%=      5-min Rain = 0
KME1 141454Z 20013KT 31/18 A30 RMK A01 T03090182  RH  047%=      5-min Rain = 0
KME1 141455Z 20012KT 31/18 A30 RMK A01 T03080181  RH  047%=      5-min Rain = 0
KME1 141456Z 19010KT 31/18 A30 RMK A01 T03070181  RH  047%=      5-min Rain = 0
KME1 141457Z 19008G13KT 31/18 A3001 RMK A01 T03090182  RH  047%=      5-min Rain = 0
KME1 141458Z 20012KT 31/18 A30 RMK A01 T03110181  RH  046%=      5-min Rain = 0
KME1 141459Z 21011KT 31/18 A3001 RMK A01 T03090181  RH  046%=      5-min Rain = 0
KME1 141500Z 21013KT 31/18 A3001 RMK A01 T03080181  RH  047%=      5-min Rain = 0
KME1 141501Z 21012KT 31/18 A3001 RMK A01 T03090181  RH  047%=      5-min Rain = 0
KME1 141502Z 22011KT 31/18 A3001 RMK A01 T03090182  RH  047%=      5-min Rain = 0
KME1 141503Z 20010KT 31/18 A3001 RMK A01 T03100182  RH  047%=      5-min Rain = 0
KME1 141504Z 20010KT 31/18 A30 RMK A01 T03120181  RH  046%=      5-min Rain = 0
KME1 141505Z 19011KT 31/18 A3001 RMK A01 T03130181  RH  045%=      5-min Rain = 0
KME1 141506Z 18012KT 31/18 A30 RMK A01 T03130181  RH  045%=      5-min Rain = 0
KME1 141507Z 19014KT 31/18 A30 RMK A01 T03130181  RH  045%=      5-min Rain = 0
KME1 141508Z 19012KT 31/18 A3001 RMK A01 T03120181  RH  046%=      5-min Rain = 0
KME1 141509Z 19011KT 31/18 A3001 RMK A01 T03120182  RH  046%=      5-min Rain = 0
KME1 141510Z 19010KT 31/18 A30 RMK A01 T03110181  RH  046%=      5-min Rain = 0
KME1 141511Z 19010KT 31/18 A3001 RMK A01 T03120182  RH  046%=      5-min Rain = 0
KME1 141512Z 20010KT 31/18 A3001 RMK A01 T03130181  RH  045%=      5-min Rain = 0
KME1 141513Z 19011KT 31/18 A3001 RMK A01 T03140181  RH  045%=      5-min Rain = 0
KME1 141514Z 20012KT 32/18 A30 RMK A01 T03160180  RH  045%=      5-min Rain = 0
KME1 141515Z 20013KT 32/18 A3001 RMK A01 T03150180  RH  045%=      5-min Rain = 0
KME1 141516Z 20015KT 32/18 A30 RMK A01 T03150179  RH  044%=      5-min Rain = 0
KME1 141517Z 21012KT 31/18 A30 RMK A01 T03140180  RH  045%=      5-min Rain = 0
KME1 141518Z 21012G17KT 31/18 A30 RMK A01 T03140179  RH  045%=      5-min Rain = 0
KME1 141519Z 21011KT 32/18 A30 RMK A01 T03160180  RH  044%=      5-min Rain = 0
KME1 141520Z 22014KT 32/18 A30 RMK A01 T03190180  RH  044%=      5-min Rain = 0
KME1 141521Z 22013KT 32/18 A30 RMK A01 T03200179  RH  043%=      5-min Rain = 0
KME1 141522Z 21013KT 32/18 A30 RMK A01 T03200180  RH  043%=      5-min Rain = 0
KME1 141523Z 21013KT 32/18 A30 RMK A01 T03210179  RH  043%=      5-min Rain = 0
KME1 141524Z 19012KT 32/18 A30 RMK A01 T03210180  RH  043%=      5-min Rain = 0
KME1 141525Z 19011G16KT 32/18 A30 RMK A01 T03220180  RH  043%=      5-min Rain = 0
KME1 141526Z 18011G16KT 32/18 A30 RMK A01 T03240181  RH  043%=      5-min Rain = 0
KME1 141527Z 19014KT 33/18 A30 RMK A01 T03250178  RH  042%=      5-min Rain = 0
KME1 141528Z 20011G16KT 32/18 A30 RMK A01 T03220178  RH  042%=      5-min Rain = 0
KME1 141529Z 20013KT 32/18 A30 RMK A01 T03220177  RH  042%=      5-min Rain = 0
KME1 141530Z 20013G18KT 32/18 A30 RMK A01 T03220177  RH  042%=      5-min Rain = 0
KME1 141531Z 20014KT 32/17 A30 RMK A01 T03220174  RH  041%=      5-min Rain = 0
KME1 141532Z 20013KT 32/17 A30 RMK A01 T03210174  RH  042%=      5-min Rain = 0
KME1 141533Z 20010G15KT 32/17 A30 RMK A01 T03210174  RH  041%=      5-min Rain = 0
KME1 141534Z 22011KT 32/17 A30 RMK A01 T03230174  RH  041%=      5-min Rain = 0
KME1 141535Z 21014KT 33/17 A30 RMK A01 T03260174  RH  040%=      5-min Rain = 0
KME1 141536Z 21015KT 33/17 A3001 RMK A01 T03270173  RH  040%=      5-min Rain = 0
KME1 141537Z 21013KT 33/17 A3001 RMK A01 T03270174  RH  040%=      5-min Rain = 0
KME1 141538Z 21012KT 33/17 A3001 RMK A01 T03260172  RH  040%=      5-min Rain = 0
KME1 141539Z 21010G15KT 33/17 A3001 RMK A01 T03270172  RH  040%=      5-min Rain = 0
KME1 141540Z 21014KT 33/17 A3001 RMK A01 T03280172  RH  039%=      5-min Rain = 0
KME1 141541Z 22013KT 33/17 A3001 RMK A01 T03280172  RH  039%=      5-min Rain = 0
KME1 141542Z 22014KT 33/17 A3001 RMK A01 T03270171  RH  039%=      5-min Rain = 0
KME1 141543Z 22014KT 33/17 A3001 RMK A01 T03290172  RH  039%=      5-min Rain = 0
KME1 141544Z 21014KT 33/17 A3001 RMK A01 T03310172  RH  039%=      5-min Rain = 0
KME1 141545Z 20014KT 33/17 A3001 RMK A01 T03300169  RH  038%=      5-min Rain = 0
KME1 141546Z 20014KT 33/17 A3001 RMK A01 T03270169  RH  039%=      5-min Rain = 0
KME1 141547Z 21010KT 33/17 A3001 RMK A01 T03270169  RH  039%=      5-min Rain = 0
KME1 141548Z 21011KT 33/17 A3001 RMK A01 T03290170  RH  038%=      5-min Rain = 0
KME1 141549Z 20010KT 33/17 A3001 RMK A01 T03300169  RH  038%=      5-min Rain = 0
KME1 141550Z 19012KT 33/17 A3001 RMK A01 T03290169  RH  038%=      5-min Rain = 0
KME1 141551Z 20010KT 33/17 A3001 RMK A01 T03290169  RH  039%=      5-min Rain = 0
KME1 141552Z 18011KT 33/17 A3001 RMK A01 T03320170  RH  038%=      5-min Rain = 0
KME1 141553Z 19014KT 33/17 A3001 RMK A01 T03340169  RH  037%=      5-min Rain = 0
KME1 141554Z 19011KT 33/17 A3001 RMK A01 T03340168  RH  037%=      5-min Rain = 0
KME1 141555Z 18011KT 33/17 A3001 RMK A01 T03320169  RH  038%=      5-min Rain = 0
KME1 141556Z 20009KT 33/17 A3002 RMK A01 T03320169  RH  038%=      5-min Rain = 0
KME1 141557Z 18010KT 33/17 A3002 RMK A01 T03330169  RH  037%=      5-min Rain = 0
KME1 141558Z 19015KT 34/17 A3001 RMK A01 T03350168  RH  037%=      5-min Rain = 0
KME1 141559Z 20012G17KT 33/17 A3002 RMK A01 T03340167  RH  037%=      5-min Rain = 0
KME1 141600Z 21006G12KT 33/17 A3002 RMK A01 T03330167  RH  037%=      5-min Rain = 0
KME1 141601Z 20012KT 34/17 A3002 RMK A01 T03350166  RH  036%=      5-min Rain = 0
KME1 141602Z 20009KT 34/17 A3002 RMK A01 T03350166  RH  037%=      5-min Rain = 0
KME1 141603Z 22013KT 34/17 A3002 RMK A01 T03350167  RH  037%=      5-min Rain = 0
KME1 141604Z 22012KT 34/17 A3002 RMK A01 T03380167  RH  036%=      5-min Rain = 0
KME1 141605Z 20007KT 34/17 A3002 RMK A01 T03390167  RH  036%=      5-min Rain = 0
KME1 141606Z 19010KT 34/17 A3002 RMK A01 T03400169  RH  036%=      5-min Rain = 0
KME1 141607Z 19010G15KT 34/17 A3002 RMK A01 T03410169  RH  036%=      5-min Rain = 0
KME1 141608Z 22013KT 34/17 A3002 RMK A01 T03410168  RH  036%=      5-min Rain = 0
KME1 141609Z 22011KT 34/17 A3002 RMK A01 T03400166  RH  036%=      5-min Rain = 0
KME1 141610Z 21012KT 34/17 A3002 RMK A01 T03380166  RH  036%=      5-min Rain = 0
KME1 141611Z 20011KT 34/17 A3002 RMK A01 T03390165  RH  035%=      5-min Rain = 0
KME1 141612Z 19011KT 34/17 A3002 RMK A01 T03390167  RH  036%=      5-min Rain = 0
KME1 141613Z 20011KT 34/17 A3002 RMK A01 T03400167  RH  036%=      5-min Rain = 0
KME1 141614Z 21011KT 34/17 A3002 RMK A01 T03400167  RH  036%=      5-min Rain = 0
KME1 141615Z 22011KT 34/17 A3002 RMK A01 T03400166  RH  035%=      5-min Rain = 0
KME1 141616Z 21011KT 34/17 A3002 RMK A01 T03400169  RH  036%=      5-min Rain = 0
KME1 141617Z 21011KT 34/17 A3002 RMK A01 T03410169  RH  036%=      5-min Rain = 0
KME1 141618Z 21010KT 34/17 A3002 RMK A01 T03400170  RH  037%=      5-min Rain = 0
KME1 141619Z 21012KT 34/17 A3002 RMK A01 T03400170  RH  036%=      5-min Rain = 0
KME1 141620Z 20009KT 34/17 A3002 RMK A01 T03410167  RH  035%=      5-min Rain = 0
KME1 141621Z 18009KT 34/17 A3002 RMK A01 T03410166  RH  035%=      5-min Rain = 0
KME1 141622Z 18010KT 34/17 A3002 RMK A01 T03430166  RH  035%=      5-min Rain = 0
KME1 141623Z 19012KT 34/17 A3002 RMK A01 T03430169  RH  035%=      5-min Rain = 0
KME1 141624Z 21010KT 34/17 A3002 RMK A01 T03430169  RH  036%=      5-min Rain = 0
KME1 141625Z 23008KT 34/17 A3002 RMK A01 T03430165  RH  035%=      5-min Rain = 0
KME1 141626Z 25010KT 34/17 A3002 RMK A01 T03440167  RH  035%=      5-min Rain = 0
KME1 141627Z 23012KT 35/17 A3002 RMK A01 T03480167  RH  034%=      5-min Rain = 0
KME1 141628Z 21007KT 35/16 A3002 RMK A01 T03470163  RH  033%=      5-min Rain = 0
KME1 141629Z 20009KT 35/17 A3002 RMK A01 T03460165  RH  034%=      5-min Rain = 0
KME1 141630Z 19011KT 35/17 A3002 RMK A01 T03470166  RH  034%=      5-min Rain = 0
KME1 141631Z 19011KT 35/16 A3002 RMK A01 T03470164  RH  034%=      5-min Rain = 0
KME1 141632Z 21010KT 35/16 A3002 RMK A01 T03450163  RH  034%=      5-min Rain = 0
KME1 141633Z 21009KT 34/16 A3002 RMK A01 T03440163  RH  034%=      5-min Rain = 0
KME1 141634Z 21009KT 35/16 A3002 RMK A01 T03470162  RH  033%=      5-min Rain = 0
KME1 141635Z 21010KT 35/17 A3002 RMK A01 T03510167  RH  034%=      5-min Rain = 0
KME1 141636Z 21009KT 35/17 A3002 RMK A01 T03530168  RH  033%=      5-min Rain = 0
KME1 141637Z 19010KT 35/17 A3002 RMK A01 T03510170  RH  034%=      5-min Rain = 0
KME1 141638Z 18008KT 35/17 A3002 RMK A01 T03510169  RH  034%=      5-min Rain = 0
KME1 141639Z 19010KT 35/17 A3002 RMK A01 T03480167  RH  034%=      5-min Rain = 0
KME1 141640Z 19009G14KT 35/17 A3002 RMK A01 T03450167  RH  035%=      5-min Rain = 0
KME1 141641Z 19012KT 35/17 A3002 RMK A01 T03470168  RH  035%=      5-min Rain = 0
KME1 141642Z 19010KT 35/17 A3002 RMK A01 T03510169  RH  034%=      5-min Rain = 0
KME1 141643Z 19009KT 35/17 A3002 RMK A01 T03530169  RH  034%=      5-min Rain = 0
KME1 141644Z 21007KT 35/17 A3002 RMK A01 T03520169  RH  034%=      5-min Rain = 0
KME1 141645Z 22006KT 35/17 A3002 RMK A01 T03510169  RH  034%=      5-min Rain = 0
KME1 141646Z 21008KT 35/17 A3002 RMK A01 T03520169  RH  034%=      5-min Rain = 0
KME1 141647Z 20010KT 35/17 A3002 RMK A01 T03540170  RH  034%=      5-min Rain = 0
KME1 141648Z 18009KT 35/17 A3002 RMK A01 T03520169  RH  034%=      5-min Rain = 0
KME1 141649Z 19007KT 35/17 A3002 RMK A01 T03510169  RH  034%=      5-min Rain = 0
KME1 141650Z 18005KT 35/17 A3002 RMK A01 T03500169  RH  034%=      5-min Rain = 0
KME1 141651Z 19009KT 35/17 A3002 RMK A01 T03480170  RH  035%=      5-min Rain = 0
KME1 141652Z 21010KT 35/17 A3002 RMK A01 T03530170  RH  034%=      5-min Rain = 0
KME1 141653Z 21010KT 36/17 A3002 RMK A01 T03570168  RH  033%=      5-min Rain = 0
KME1 141654Z 21008KT 36/17 A3002 RMK A01 T03580168  RH  033%=      5-min Rain = 0
KME1 141655Z 23010KT 36/17 A3002 RMK A01 T03600169  RH  032%=      5-min Rain = 0
KME1 141656Z 23008KT 36/17 A3002 RMK A01 T03610168  RH  032%=      5-min Rain = 0
KME1 141657Z 23007KT 36/17 A3002 RMK A01 T03590170  RH  033%=      5-min Rain = 0
KME1 141658Z 21008KT 36/17 A3002 RMK A01 T03610170  RH  032%=      5-min Rain = 0
KME1 141659Z 22008KT 36/17 A3002 RMK A01 T03600169  RH  032%=      5-min Rain = 0
KME1 141700Z 18006KT 36/17 A3002 RMK A01 T03570167  RH  033%=      5-min Rain = 0
KME1 141701Z 18006KT 36/16 A3002 RMK A01 T03560163  RH  032%=      5-min Rain = 0
KME1 141702Z 18007KT 36/16 A3002 RMK A01 T03550162  RH  032%=      5-min Rain = 0
KME1 141703Z 19009G14KT 36/16 A3001 RMK A01 T03560163  RH  032%=      5-min Rain = 0
KME1 141704Z 23012KT 36/16 A3002 RMK A01 T03600163  RH  031%=      5-min Rain = 0
KME1 141705Z 23009KT 36/16 A3002 RMK A01 T03620162  RH  031%=      5-min Rain = 0
KME1 141706Z 22013KT 36/17 A3002 RMK A01 T03610165  RH  032%=      5-min Rain = 0
KME1 141707Z 21009KT 36/17 A3002 RMK A01 T03590167  RH  032%=      5-min Rain = 0
KME1 141708Z 20007KT 36/17 A3002 RMK A01 T03570166  RH  032%=      5-min Rain = 0
KME1 141709Z 19004KT 36/17 A3001 RMK A01 T03550166  RH  033%=      5-min Rain = 0
KME1 141710Z 19006G12KT 36/17 A3001 RMK A01 T03560166  RH  032%=      5-min Rain = 0
KME1 141711Z 18012KT 36/17 A3001 RMK A01 T03610166  RH  032%=      5-min Rain = 0
KME1 141712Z 18010KT 36/17 A3001 RMK A01 T03620165  RH  031%=      5-min Rain = 0
KME1 141713Z 16010KT 36/16 A3001 RMK A01 T03620164  RH  031%=      5-min Rain = 0
KME1 141714Z 18011KT 36/16 A3001 RMK A01 T03610164  RH  031%=      5-min Rain = 0
KME1 141715Z 20010KT 36/16 A3001 RMK A01 T03630163  RH  031%=      5-min Rain = 0
KME1 141716Z 19010G15KT 36/16 A3001 RMK A01 T03640160  RH  030%=      5-min Rain = 0
KME1 141717Z 20011KT 36/16 A3001 RMK A01 T03620159  RH  030%=      5-min Rain = 0
KME1 141718Z 22011KT 36/16 A3001 RMK A01 T03600158  RH  030%=      5-min Rain = 0
KME1 141719Z 19010KT 36/16 A3001 RMK A01 T03610160  RH  030%=      5-min Rain = 0
KME1 141720Z 18008KT 36/16 A3001 RMK A01 T03610160  RH  030%=      5-min Rain = 0
KME1 141721Z 21009G14KT 36/16 A3001 RMK A01 T03610160  RH  030%=      5-min Rain = 0
KME1 141722Z 21011KT 36/16 A3001 RMK A01 T03620159  RH  030%=      5-min Rain = 0
KME1 141723Z 22011KT 36/16 A3001 RMK A01 T03620158  RH  030%=      5-min Rain = 0
KME1 141724Z 22012KT 36/16 A3001 RMK A01 T03640156  RH  029%=      5-min Rain = 0
KME1 141725Z 23011KT 37/16 A3001 RMK A01 T03660155  RH  029%=      5-min Rain = 0
KME1 141726Z 23010KT 37/16 A3001 RMK A01 T03670155  RH  029%=      5-min Rain = 0
KME1 141727Z 21007KT 37/16 A3001 RMK A01 T03670156  RH  029%=      5-min Rain = 0
KME1 141728Z 23006KT 37/16 A3001 RMK A01 T03670157  RH  029%=      5-min Rain = 0
KME1 141729Z 21006KT 37/16 A3001 RMK A01 T03680156  RH  028%=      5-min Rain = 0
KME1 141730Z 25006KT 37/16 A3001 RMK A01 T03670155  RH  028%=      5-min Rain = 0
KME1 141731Z 19007KT 37/15 A3001 RMK A01 T03660154  RH  029%=      5-min Rain = 0
KME1 141732Z 17008G14KT 36/15 A3001 RMK A01 T03640154  RH  029%=      5-min Rain = 0
KME1 141733Z 19013KT 37/16 A3001 RMK A01 T03650157  RH  029%=      5-min Rain = 0
KME1 141734Z 19011KT 37/16 A3001 RMK A01 T03660159  RH  030%=      5-min Rain = 0
KME1 141735Z 19009KT 37/16 A3001 RMK A01 T03660160  RH  030%=      5-min Rain = 0
KME1 141736Z 20005KT 37/16 A3001 RMK A01 T03660161  RH  030%=      5-min Rain = 0
KME1 141737Z 19004KT 37/16 A3001 RMK A01 T03650161  RH  030%=      5-min Rain = 0
KME1 141738Z 17005KT 37/16 A3001 RMK A01 T03660157  RH  029%=      5-min Rain = 0
KME1 141739Z 21010KT 37/16 A30 RMK A01 T03670157  RH  029%=      5-min Rain = 0
KME1 141740Z 22007KT 37/16 A3001 RMK A01 T03730157  RH  028%=      5-min Rain = 0
KME1 141741Z 26007KT 38/16 A3001 RMK A01 T03760157  RH  027%=      5-min Rain = 0
KME1 141742Z 21008KT 38/16 A3001 RMK A01 T03770156  RH  027%=      5-min Rain = 0
KME1 141743Z 21009KT 38/15 A30 RMK A01 T03750154  RH  027%=      5-min Rain = 0
KME1 141744Z 20008G14KT 37/16 A3001 RMK A01 T03730157  RH  028%=      5-min Rain = 0
KME1 141745Z 21011KT 37/15 A3001 RMK A01 T03740154  RH  027%=      5-min Rain = 0
KME1 141746Z 20008KT 37/16 A3001 RMK A01 T03710155  RH  028%=      5-min Rain = 0
KME1 141747Z 20007KT 37/16 A30 RMK A01 T03690155  RH  028%=      5-min Rain = 0
KME1 141748Z 21008KT 37/15 A30 RMK A01 T03660154  RH  028%=      5-min Rain = 0
KME1 141749Z 19007KT 37/15 A30 RMK A01 T03660154  RH  028%=      5-min Rain = 0
KME1 141750Z 18008KT 37/15 A30 RMK A01 T03690152  RH  028%=      5-min Rain = 0
KME1 141751Z 16009KT 37/15 A30 RMK A01 T03700153  RH  028%=      5-min Rain = 0
KME1 141752Z 17005KT 37/15 A30 RMK A01 T03730151  RH  027%=      5-min Rain = 0
KME1 141753Z 18007G13KT 37/15 A30 RMK A01 T03730151  RH  027%=      5-min Rain = 0
KME1 141754Z 22012G20KT 38/15 A30 RMK A01 T03760153  RH  027%=      5-min Rain = 0
KME1 141755Z 22007KT 38/15 A30 RMK A01 T03810154  RH  026%=      5-min Rain = 0
KME1 141756Z 21005KT 38/15 A30 RMK A01 T03800154  RH  026%=      5-min Rain = 0
KME1 141757Z 19008KT 38/15 A30 RMK A01 T03780154  RH  027%=      5-min Rain = 0
KME1 141758Z 18009KT 38/15 A30 RMK A01 T03790153  RH  026%=      5-min Rain = 0
KME1 141759Z 18008KT 38/15 A30 RMK A01 T03770152  RH  026%=      5-min Rain = 0
KME1 141800Z 19009KT 38/15 A30 RMK A01 T03760150  RH  026%=      5-min Rain = 0
KME1 141801Z 19010KT 38/15 A30 RMK A01 T03790149  RH  026%=      5-min Rain = 0
KME1 141802Z 18011KT 38/15 A30 RMK A01 T03810148  RH  025%=      5-min Rain = 0
KME1 141803Z 19007KT 38/15 A30 RMK A01 T03770147  RH  026%=      5-min Rain = 0
KME1 141804Z 20009KT 38/15 A30 RMK A01 T03770149  RH  026%=      5-min Rain = 0
KME1 141805Z 20011KT 38/15 A30 RMK A01 T03800150  RH  026%=      5-min Rain = 0
KME1 141806Z 21012KT 38/15 A30 RMK A01 T03810149  RH  025%=      5-min Rain = 0
KME1 141807Z 22012KT 38/15 A2999 RMK A01 T03800145  RH  025%=      5-min Rain = 0
KME1 141808Z 24010KT 38/15 A2999 RMK A01 T03780147  RH  025%=      5-min Rain = 0
KME1 141809Z 21005KT 38/15 A2999 RMK A01 T03770149  RH  026%=      5-min Rain = 0
KME1 141810Z 18010KT 38/15 A2999 RMK A01 T03780152  RH  026%=      5-min Rain = 0
KME1 141811Z 20007KT 38/15 A2999 RMK A01 T03800152  RH  026%=      5-min Rain = 0
KME1 141812Z 18005KT 38/15 A2999 RMK A01 T03790152  RH  026%=      5-min Rain = 0
KME1 141813Z 17006KT 38/15 A2999 RMK A01 T03770153  RH  026%=      5-min Rain = 0
KME1 141814Z 15008KT 38/15 A2999 RMK A01 T03780151  RH  026%=      5-min Rain = 0
KME1 141815Z 14006KT 38/15 A2999 RMK A01 T03790147  RH  025%=      5-min Rain = 0
KME1 141816Z 20008KT 38/15 A2999 RMK A01 T03780148  RH  026%=      5-min Rain = 0
KME1 141817Z 22007KT 38/15 A2999 RMK A01 T03830151  RH  025%=      5-min Rain = 0
KME1 141818Z 23006KT 39/15 A2999 RMK A01 T03870152  RH  025%=      5-min Rain = 0
KME1 141819Z 21013KT 39/15 A2999 RMK A01 T03870147  RH  024%=      5-min Rain = 0
KME1 141820Z 22014KT 38/15 A2999 RMK A01 T03840145  RH  024%=      5-min Rain = 0
KME1 141821Z 21012KT 38/15 A2999 RMK A01 T03800145  RH  025%=      5-min Rain = 0
KME1 141822Z 22009KT 38/14 A2999 RMK A01 T03780144  RH  025%=      5-min Rain = 0
KME1 141823Z 21009KT 38/14 A2999 RMK A01 T03810141  RH  024%=      5-min Rain = 0
KME1 141824Z 22011KT 39/14 A2999 RMK A01 T03860136  RH  023%=      5-min Rain = 0
KME1 141825Z 22008KT 39/13 A2999 RMK A01 T03860133  RH  022%=      5-min Rain = 0
KME1 141826Z 21009KT 39/13 A2999 RMK A01 T03860134  RH  022%=      5-min Rain = 0
KME1 141827Z 20006KT 39/13 A2999 RMK A01 T03850131  RH  022%=      5-min Rain = 0
KME1 141828Z 19006KT 38/13 A2999 RMK A01 T03810128  RH  022%=      5-min Rain = 0
KME1 141829Z 24009KT 38/13 A2999 RMK A01 T03810131  RH  023%=      5-min Rain = 0
KME1 141830Z 24010KT 38/14 A2999 RMK A01 T03820143  RH  024%=      5-min Rain = 0
KME1 141831Z 23007KT 38/14 A2999 RMK A01 T03840141  RH  024%=      5-min Rain = 0
KME1 141832Z 23008KT 38/14 A2999 RMK A01 T03830143  RH  024%=      5-min Rain = 0
KME1 141833Z 23008KT 38/15 A2999 RMK A01 T03840145  RH  024%=      5-min Rain = 0
KME1 141834Z 23008KT 39/15 A2998 RMK A01 T03850145  RH  024%=      5-min Rain = 0
KME1 141835Z 22007KT 39/14 A2998 RMK A01 T03850143  RH  024%=      5-min Rain = 0
KME1 141836Z 21005KT 38/14 A2998 RMK A01 T03830144  RH  024%=      5-min Rain = 0
KME1 141837Z 21004KT 38/14 A2998 RMK A01 T03820143  RH  024%=      5-min Rain = 0
KME1 141838Z 20007KT 38/14 A2998 RMK A01 T03810144  RH  025%=      5-min Rain = 0
KME1 141839Z 18006KT 38/14 A2998 RMK A01 T03820144  RH  024%=      5-min Rain = 0
KME1 141840Z 18008KT 38/15 A2998 RMK A01 T03840145  RH  024%=      5-min Rain = 0
KME1 141841Z 20010KT 39/14 A2998 RMK A01 T03880144  RH  024%=      5-min Rain = 0
KME1 141842Z 19012KT 39/14 A2998 RMK A01 T03900141  RH  023%=      5-min Rain = 0
KME1 141843Z 20009KT 39/14 A2998 RMK A01 T03890139  RH  023%=      5-min Rain = 0
KME1 141844Z 19009KT 39/14 A2998 RMK A01 T03860138  RH  023%=      5-min Rain = 0
KME1 141845Z 20008KT 38/14 A2998 RMK A01 T03840140  RH  024%=      5-min Rain = 0
KME1 141846Z 21006KT 39/14 A2998 RMK A01 T03870142  RH  023%=      5-min Rain = 0
KME1 141847Z 23010KT 39/15 A2998 RMK A01 T03920146  RH  024%=      5-min Rain = 0
KME1 141848Z 23008KT 39/15 A2998 RMK A01 T03940148  RH  023%=      5-min Rain = 0
KME1 141849Z 22006KT 39/15 A2998 RMK A01 T03900147  RH  024%=      5-min Rain = 0
KME1 141850Z 18006KT 39/15 A2998 RMK A01 T03860145  RH  024%=      5-min Rain = 0
KME1 141851Z 20006KT 39/14 A2998 RMK A01 T03890144  RH  024%=      5-min Rain = 0
KME1 141852Z 20009KT 39/14 A2998 RMK A01 T03940144  RH  023%=      5-min Rain = 0
KME1 141853Z 21009KT 40/14 A2998 RMK A01 T03950144  RH  023%=      5-min Rain = 0
KME1 141854Z 20011KT 40/14 A2997 RMK A01 T03970143  RH  022%=      5-min Rain = 0
KME1 141855Z 20010KT 39/14 A2998 RMK A01 T03930139  RH  022%=      5-min Rain = 0
KME1 141856Z 19008KT 39/14 A2997 RMK A01 T03890138  RH  023%=      5-min Rain = 0
KME1 141857Z 19007KT 39/13 A2997 RMK A01 T03880134  RH  022%=      5-min Rain = 0
KME1 141858Z 19007KT 39/14 A2997 RMK A01 T03900135  RH  022%=      5-min Rain = 0
KME1 141859Z 20005KT 39/14 A2997 RMK A01 T03940136  RH  022%=      5-min Rain = 0
KME1 141900Z 23006KT 39/14 A2997 RMK A01 T03940135  RH  022%=      5-min Rain = 0
KME1 141901Z 22006KT 40/12 A2997 RMK A01 T03970119  RH  019%=      5-min Rain = 0
KME1 141902Z 21006KT 40/12 A2997 RMK A01 T03990121  RH  019%=      5-min Rain = 0
KME1 141903Z 21004KT 40/13 A2997 RMK A01 T03980134  RH  021%=      5-min Rain = 0
KME1 141904Z 21007KT 40/14 A2997 RMK A01 T03980139  RH  022%=      5-min Rain = 0
KME1 141905Z 18007KT 40/14 A2997 RMK A01 T03970139  RH  022%=      5-min Rain = 0
KME1 141906Z 19008KT 40/14 A2997 RMK A01 T03960137  RH  022%=      5-min Rain = 0
KME1 141907Z 22005KT 39/14 A2997 RMK A01 T03940137  RH  022%=      5-min Rain = 0
KME1 141908Z 19010KT 40/14 A2997 RMK A01 T03960138  RH  022%=      5-min Rain = 0
KME1 141909Z 18010KT 40/14 A2997 RMK A01 T03950140  RH  022%=      5-min Rain = 0
KME1 141910Z 18011KT 40/14 A2997 RMK A01 T03970142  RH  022%=      5-min Rain = 0
KME1 141911Z 18009KT 40/14 A2997 RMK A01 T03950144  RH  023%=      5-min Rain = 0
KME1 141912Z 18005KT 39/15 A2997 RMK A01 T03910145  RH  023%=      5-min Rain = 0
KME1 141913Z 16004KT 39/15 A2997 RMK A01 T03920145  RH  023%=      5-min Rain = 0
KME1 141914Z 18005KT 39/15 A2997 RMK A01 T03940145  RH  023%=      5-min Rain = 0
KME1 141915Z 17009G14KT 40/15 A2997 RMK A01 T03970145  RH  023%=      5-min Rain = 0
KME1 141916Z 18011KT 40/14 A2997 RMK A01 T03980140  RH  022%=      5-min Rain = 0
KME1 141917Z 19009KT 40/14 A2997 RMK A01 T03970140  RH  022%=      5-min Rain = 0
KME1 141918Z 17011KT 40/14 A2997 RMK A01 T04000136  RH  021%=      5-min Rain = 0
KME1 141919Z 16007KT 40/14 A2997 RMK A01 T03950135  RH  022%=      5-min Rain = 0
KME1 141920Z 19009KT 39/14 A2996 RMK A01 T03940135  RH  022%=      5-min Rain = 0
KME1 141921Z 20010KT 40/13 A2996 RMK A01 T03990134  RH  021%=      5-min Rain = 0
KME1 141922Z 19007KT 40/13 A2996 RMK A01 T03980132  RH  021%=      5-min Rain = 0
KME1 141923Z 18008KT 39/13 A2996 RMK A01 T03930128  RH  021%=      5-min Rain = 0
KME1 141924Z 18012KT 39/13 A2996 RMK A01 T03940125  RH  020%=      5-min Rain = 0
KME1 141925Z 18012KT 40/13 A2996 RMK A01 T03970127  RH  020%=      5-min Rain = 0
KME1 141926Z 18010KT 40/13 A2996 RMK A01 T03980129  RH  020%=      5-min Rain = 0
KME1 141927Z 18008KT 40/13 A2996 RMK A01 T03980131  RH  021%=      5-min Rain = 0
KME1 141928Z 15010KT 40/13 A2996 RMK A01 T03990134  RH  021%=      5-min Rain = 0
KME1 141929Z 16008KT 40/13 A2996 RMK A01 T04010133  RH  021%=      5-min Rain = 0
KME1 141930Z 16009KT 40/13 A2996 RMK A01 T04000133  RH  021%=      5-min Rain = 0
KME1 141931Z 16007KT 40/13 A2996 RMK A01 T04040133  RH  020%=      5-min Rain = 0
KME1 141932Z 18012G18KT 40/13 A2996 RMK A01 T04040132  RH  020%=      5-min Rain = 0
KME1 141933Z 17012KT 40/13 A2996 RMK A01 T04030128  RH  020%=      5-min Rain = 0
KME1 141934Z 17011KT 40/13 A2996 RMK A01 T04040126  RH  019%=      5-min Rain = 0
KME1 141935Z 18010KT 40/13 A2996 RMK A01 T04030125  RH  019%=      5-min Rain = 0
KME1 141936Z 17010KT 40/13 A2996 RMK A01 T04020125  RH  019%=      5-min Rain = 0
KME1 141937Z 17008KT 40/12 A2996 RMK A01 T04020123  RH  019%=      5-min Rain = 0
KME1 141938Z 19007KT 40/12 A2995 RMK A01 T04020121  RH  019%=      5-min Rain = 0
KME1 141939Z 17007G12KT 40/12 A2995 RMK A01 T04000117  RH  019%=      5-min Rain = 0
KME1 141940Z 19009KT 40/13 A2995 RMK A01 T03990127  RH  020%=      5-min Rain = 0
KME1 141941Z 17010KT 40/13 A2995 RMK A01 T03990127  RH  020%=      5-min Rain = 0
KME1 141942Z 17009KT 40/13 A2995 RMK A01 T04010126  RH  020%=      5-min Rain = 0
KME1 141943Z 16007KT 40/12 A2995 RMK A01 T04020124  RH  019%=      5-min Rain = 0
KME1 141944Z 17008KT 40/12 A2995 RMK A01 T04020123  RH  019%=      5-min Rain = 0
KME1 141945Z 17010KT 40/12 A2995 RMK A01 T04020121  RH  019%=      5-min Rain = 0
KME1 141946Z 17010KT 40/12 A2995 RMK A01 T04020119  RH  019%=      5-min Rain = 0
KME1 141947Z 16014KT 40/12 A2995 RMK A01 T04030120  RH  019%=      5-min Rain = 0
KME1 141948Z 18013KT 40/12 A2995 RMK A01 T04040122  RH  019%=      5-min Rain = 0
KME1 141949Z 17012KT 40/12 A2995 RMK A01 T04020124  RH  019%=      5-min Rain = 0
KME1 141950Z 16012KT 40/12 A2995 RMK A01 T04020123  RH  019%=      5-min Rain = 0
KME1 141951Z 17010KT 40/13 A2995 RMK A01 T04000125  RH  020%=      5-min Rain = 0
KME1 141952Z 17008KT 40/13 A2995 RMK A01 T04010127  RH  020%=      5-min Rain = 0
KME1 141953Z 15006KT 40/13 A2994 RMK A01 T04000128  RH  020%=      5-min Rain = 0
KME1 141954Z 16007KT 40/13 A2994 RMK A01 T03990129  RH  020%=      5-min Rain = 0
KME1 141955Z 19010KT 41/13 A2994 RMK A01 T04070132  RH  020%=      5-min Rain = 0
KME1 141956Z 22007KT 41/13 A2994 RMK A01 T04110131  RH  019%=      5-min Rain = 0
KME1 141957Z 22006KT 41/13 A2994 RMK A01 T04110131  RH  019%=      5-min Rain = 0
KME1 141958Z 20011KT 41/13 A2994 RMK A01 T04110128  RH  019%=      5-min Rain = 0
KME1 141959Z 21010KT 41/13 A2994 RMK A01 T04080126  RH  019%=      5-min Rain = 0
KME1 142000Z 18011KT 41/13 A2994 RMK A01 T04110125  RH  019%=      5-min Rain = 0
KME1 142001Z 17007KT 41/13 A2994 RMK A01 T04110125  RH  018%=      5-min Rain = 0
KME1 142002Z 16009G14KT 41/12 A2994 RMK A01 T04080123  RH  019%=      5-min Rain = 0
KME1 142003Z 19012KT 41/13 A2994 RMK A01 T04050125  RH  019%=      5-min Rain = 0
KME1 142004Z 19009KT 41/13 A2994 RMK A01 T04050125  RH  019%=      5-min Rain = 0
KME1 142005Z 20009KT 40/13 A2994 RMK A01 T04020127  RH  020%=      5-min Rain = 0
KME1 142006Z 22007KT 40/13 A2994 RMK A01 T04010126  RH  020%=      5-min Rain = 0
KME1 142007Z 20006KT 40/13 A2994 RMK A01 T04010125  RH  019%=      5-min Rain = 0
KME1 142008Z 18007KT 40/12 A2994 RMK A01 T04040123  RH  019%=      5-min Rain = 0
KME1 142009Z 17005KT 40/12 A2994 RMK A01 T04040123  RH  019%=      5-min Rain = 0
KME1 142010Z 18005KT 40/12 A2994 RMK A01 T04020121  RH  019%=      5-min Rain = 0
KME1 142011Z 18006KT 40/12 A2994 RMK A01 T04010115  RH  018%=      5-min Rain = 0
KME1 142012Z 17009KT 40/12 A2993 RMK A01 T04040116  RH  018%=      5-min Rain = 0
KME1 142013Z 17009G14KT 41/12 A2993 RMK A01 T04080119  RH  018%=      5-min Rain = 0
KME1 142014Z 17009KT 41/12 A2993 RMK A01 T04090122  RH  018%=      5-min Rain = 0
KME1 142015Z 17009KT 41/12 A2993 RMK A01 T04080124  RH  019%=      5-min Rain = 0
KME1 142016Z 16008KT 41/13 A2993 RMK A01 T04090125  RH  019%=      5-min Rain = 0
KME1 142017Z 19007KT 41/13 A2993 RMK A01 T04090125  RH  019%=      5-min Rain = 0
KME1 142018Z 20006KT 41/13 A2993 RMK A01 T04090127  RH  019%=      5-min Rain = 0
KME1 142019Z 18008KT 41/13 A2993 RMK A01 T04080125  RH  019%=      5-min Rain = 0
KME1 142020Z 18007KT 41/12 A2993 RMK A01 T04080122  RH  019%=      5-min Rain = 0
KME1 142021Z 16012KT 41/12 A2993 RMK A01 T04090122  RH  018%=      5-min Rain = 0
KME1 142022Z 16010G15KT 41/12 A2993 RMK A01 T04080124  RH  019%=      5-min Rain = 0
KME1 142023Z 18010KT 41/12 A2993 RMK A01 T04110124  RH  018%=      5-min Rain = 0
KME1 142024Z 19010KT 41/12 A2993 RMK A01 T04120122  RH  018%=      5-min Rain = 0
KME1 142025Z 22009KT 41/12 A2993 RMK A01 T04100119  RH  018%=      5-min Rain = 0
KME1 142026Z 19006KT 41/12 A2993 RMK A01 T04100119  RH  018%=      5-min Rain = 0
KME1 142027Z 18008KT 41/12 A2993 RMK A01 T04130119  RH  018%=      5-min Rain = 0
KME1 142028Z 17011KT 42/12 A2993 RMK A01 T04150116  RH  017%=      5-min Rain = 0
KME1 142029Z 17012KT 41/11 A2993 RMK A01 T04130112  RH  017%=      5-min Rain = 0
KME1 142030Z 19011KT 41/11 A2993 RMK A01 T04100111  RH  017%=      5-min Rain = 0
KME1 142031Z 18008G13KT 41/11 A2993 RMK A01 T04070111  RH  017%=      5-min Rain = 0
KME1 142032Z 18006KT 41/11 A2993 RMK A01 T04060110  RH  017%=      5-min Rain = 0
KME1 142033Z 17007KT 41/11 A2993 RMK A01 T04050111  RH  017%=      5-min Rain = 0
KME1 142034Z 18006KT 41/11 A2993 RMK A01 T04070110  RH  017%=      5-min Rain = 0
KME1 142035Z 18009KT 41/11 A2993 RMK A01 T04110111  RH  017%=      5-min Rain = 0
KME1 142036Z 22010KT 41/11 A2993 RMK A01 T04120110  RH  017%=      5-min Rain = 0
KME1 142037Z 22009KT 41/11 A2993 RMK A01 T04130111  RH  017%=      5-min Rain = 0
KME1 142038Z 23007KT 41/11 A2993 RMK A01 T04130114  RH  017%=      5-min Rain = 0
KME1 142039Z 24007KT 42/12 A2992 RMK A01 T04160116  RH  017%=      5-min Rain = 0
KME1 142040Z 25005KT 42/12 A2992 RMK A01 T04160117  RH  017%=      5-min Rain = 0
KME1 142041Z 29002KT 41/12 A2992 RMK A01 T04130117  RH  017%=      5-min Rain = 0
KME1 142042Z 11001KT 41/11 A2992 RMK A01 T04110114  RH  017%=      5-min Rain = 0
KME1 142043Z 18003KT 41/11 A2992 RMK A01 T04110114  RH  017%=      5-min Rain = 0
KME1 142044Z 15006KT 41/12 A2992 RMK A01 T04110115  RH  017%=      5-min Rain = 0
KME1 142045Z 14008KT 41/11 A2992 RMK A01 T04130113  RH  017%=      5-min Rain = 0
KME1 142046Z 16009KT 41/11 A2992 RMK A01 T04130113  RH  017%=      5-min Rain = 0
KME1 142047Z 15009KT 42/11 A2992 RMK A01 T04150111  RH  016%=      5-min Rain = 0
KME1 142048Z 17008KT 42/11 A2992 RMK A01 T04160111  RH  016%=      5-min Rain = 0
KME1 142049Z 19009KT 41/11 A2992 RMK A01 T04130110  RH  017%=      5-min Rain = 0
KME1 142050Z 18005KT 41/11 A2992 RMK A01 T04130112  RH  017%=      5-min Rain = 0
KME1 142051Z 18007KT 42/11 A2992 RMK A01 T04160113  RH  017%=      5-min Rain = 0
KME1 142052Z 18008KT 42/11 A2992 RMK A01 T04180110  RH  016%=      5-min Rain = 0
KME1 142053Z 20006KT 42/11 A2992 RMK A01 T04150111  RH  016%=      5-min Rain = 0
KME1 142054Z 19007G13KT 42/11 A2992 RMK A01 T04160113  RH  017%=      5-min Rain = 0
KME1 142055Z 20008KT 42/11 A2992 RMK A01 T04170110  RH  016%=      5-min Rain = 0
KME1 142056Z 20010KT 41/11 A2992 RMK A01 T04140108  RH  016%=      5-min Rain = 0
KME1 142057Z 17009KT 42/10 A2992 RMK A01 T04150102  RH  016%=      5-min Rain = 0
KME1 142058Z 19007KT 42/10 A2992 RMK A01 T04150101  RH  016%=      5-min Rain = 0
KME1 142059Z 16010KT 42/10 A2992 RMK A01 T04160101  RH  015%=      5-min Rain = 0
KME1 142100Z 16009KT 42/10 A2991 RMK A01 T04150102  RH  016%=      5-min Rain = 0
KME1 142101Z 18010KT 41/10 A2991 RMK A01 T04140103  RH  016%=      5-min Rain = 0
KME1 142102Z 18011KT 42/10 A2991 RMK A01 T04160104  RH  016%=      5-min Rain = 0
KME1 142103Z 17009KT 42/11 A2991 RMK A01 T04180105  RH  016%=      5-min Rain = 0
KME1 142104Z 17008KT 42/10 A2991 RMK A01 T04160104  RH  016%=      5-min Rain = 0
KME1 142105Z 17010KT 42/11 A2991 RMK A01 T04150105  RH  016%=      5-min Rain = 0
KME1 142106Z 16011KT 42/10 A2991 RMK A01 T04170103  RH  015%=      5-min Rain = 0
KME1 142107Z 16009KT 42/10 A2991 RMK A01 T04160102  RH  015%=      5-min Rain = 0
KME1 142108Z 15008KT 42/10 A2991 RMK A01 T04170099  RH  015%=      5-min Rain = 0
KME1 142109Z 15007KT 42/10 A2991 RMK A01 T04170098  RH  015%=      5-min Rain = 0
KME1 142110Z 14006KT 41/10 A2991 RMK A01 T04140095  RH  015%=      5-min Rain = 0
KME1 142111Z 16010KT 41/10 A2991 RMK A01 T04140098  RH  015%=      5-min Rain = 0
KME1 142112Z 16009KT 42/10 A2991 RMK A01 T04150100  RH  015%=      5-min Rain = 0
KME1 142113Z 15006KT 42/10 A2991 RMK A01 T04170101  RH  015%=      5-min Rain = 0
KME1 142114Z 14007KT 42/10 A2991 RMK A01 T04180101  RH  015%=      5-min Rain = 0
KME1 142115Z 14007KT 42/10 A2991 RMK A01 T04150100  RH  015%=      5-min Rain = 0
KME1 142116Z 13004KT 41/10 A2991 RMK A01 T04110101  RH  016%=      5-min Rain = 0
KME1 142117Z 16004KT 41/10 A2991 RMK A01 T04110103  RH  016%=      5-min Rain = 0
KME1 142118Z 17004KT 41/10 A2991 RMK A01 T04110102  RH  016%=      5-min Rain = 0
KME1 142119Z 19004KT 41/10 A2991 RMK A01 T04110102  RH  016%=      5-min Rain = 0
KME1 142120Z 24003KT 41/10 A2991 RMK A01 T04110103  RH  016%=      5-min Rain = 0
KME1 142121Z 16003KT 41/10 A2991 RMK A01 T04120103  RH  016%=      5-min Rain = 0
KME1 142122Z 22007KT 41/10 A2991 RMK A01 T04120101  RH  016%=      5-min Rain = 0
KME1 142123Z 24009KT 41/10 A2991 RMK A01 T04130103  RH  016%=      5-min Rain = 0
KME1 142124Z 20011KT 42/10 A2991 RMK A01 T04160104  RH  016%=      5-min Rain = 0
KME1 142125Z 18007KT 42/10 A2991 RMK A01 T04170103  RH  015%=      5-min Rain = 0
KME1 142126Z 19008KT 42/10 A2991 RMK A01 T04190104  RH  015%=      5-min Rain = 0
KME1 142127Z 18011G16KT 42/10 A2991 RMK A01 T04220102  RH  015%=      5-min Rain = 0
KME1 142128Z 19011G16KT 42/10 A2991 RMK A01 T04190099  RH  015%=      5-min Rain = 0
KME1 142129Z 15006KT 41/10 A2991 RMK A01 T04140100  RH  015%=      5-min Rain = 0
KME1 142130Z 23006KT 41/10 A2991 RMK A01 T04120101  RH  016%=      5-min Rain = 0
KME1 142131Z 24007KT 42/10 A2991 RMK A01 T04150102  RH  016%=      5-min Rain = 0
KME1 142132Z 26006KT 42/10 A299 RMK A01 T04160101  RH  015%=      5-min Rain = 0
KME1 142133Z 22006KT 41/10 A299 RMK A01 T04140101  RH  016%=      5-min Rain = 0
KME1 142134Z 19008KT 41/10 A299 RMK A01 T04130101  RH  016%=      5-min Rain = 0
KME1 142135Z 21009KT 42/10 A299 RMK A01 T04160100  RH  015%=      5-min Rain = 0
KME1 142136Z 21008KT 42/10 A299 RMK A01 T04180096  RH  015%=      5-min Rain = 0
KME1 142137Z 23005KT 42/10 A299 RMK A01 T04170098  RH  015%=      5-min Rain = 0
KME1 142138Z 21006KT 42/10 A299 RMK A01 T04180098  RH  015%=      5-min Rain = 0
KME1 142139Z 18008KT 42/10 A299 RMK A01 T04180097  RH  015%=      5-min Rain = 0
KME1 142140Z 18008KT 42/10 A299 RMK A01 T04200096  RH  015%=      5-min Rain = 0
KME1 142141Z 17005KT 42/09 A299 RMK A01 T04170094  RH  015%=      5-min Rain = 0
KME1 142142Z 15007KT 41/10 A299 RMK A01 T04140095  RH  015%=      5-min Rain = 0
KME1 142143Z 17006KT 41/10 A299 RMK A01 T04140096  RH  015%=      5-min Rain = 0
KME1 142144Z 17005KT 41/10 A299 RMK A01 T04140095  RH  015%=      5-min Rain = 0
KME1 142145Z 19004KT 41/10 A299 RMK A01 T04130095  RH  015%=      5-min Rain = 0
KME1 142146Z 23004KT 41/10 A299 RMK A01 T04130096  RH  015%=      5-min Rain = 0
KME1 142147Z 18005KT 41/10 A299 RMK A01 T04130097  RH  015%=      5-min Rain = 0
KME1 142148Z 15006KT 41/10 A299 RMK A01 T04140100  RH  015%=      5-min Rain = 0
KME1 142149Z 16005KT 42/10 A299 RMK A01 T04160102  RH  015%=      5-min Rain = 0
KME1 142150Z 19006KT 42/10 A299 RMK A01 T04200096  RH  015%=      5-min Rain = 0
KME1 142151Z 22010KT 42/10 A299 RMK A01 T04190095  RH  014%=      5-min Rain = 0
KME1 142152Z 22011KT 42/10 A299 RMK A01 T04200095  RH  014%=      5-min Rain = 0
KME1 142153Z 20008KT 42/10 A299 RMK A01 T04200095  RH  014%=      5-min Rain = 0
KME1 142154Z 19008KT 42/10 A299 RMK A01 T04220095  RH  014%=      5-min Rain = 0
KME1 142155Z 21009KT 42/09 A299 RMK A01 T04230091  RH  014%=      5-min Rain = 0
KME1 142156Z 23005KT 42/09 A299 RMK A01 T04230093  RH  014%=      5-min Rain = 0
KME1 142157Z 21005G10KT 43/09 A299 RMK A01 T04250092  RH  014%=      5-min Rain = 0
KME1 142158Z 19007KT 42/09 A299 RMK A01 T04240090  RH  014%=      5-min Rain = 0
KME1 142159Z 19007KT 42/09 A299 RMK A01 T04210088  RH  014%=      5-min Rain = 0
KME1 142200Z 19006KT 42/09 A299 RMK A01 T04200089  RH  014%=      5-min Rain = 0
KME1 142201Z 19005G10KT 42/09 A299 RMK A01 T04180089  RH  014%=      5-min Rain = 0
KME1 142202Z 20007KT 42/09 A299 RMK A01 T04170092  RH  014%=      5-min Rain = 0
KME1 142203Z 18005KT 42/09 A299 RMK A01 T04180092  RH  014%=      5-min Rain = 0
KME1 142204Z 13003KT 42/09 A299 RMK A01 T04160091  RH  014%=      5-min Rain = 0
KME1 142205Z 12005KT 41/09 A2989 RMK A01 T04130091  RH  015%=      5-min Rain = 0
KME1 142206Z 16003KT 41/09 A2989 RMK A01 T04110091  RH  015%=      5-min Rain = 0
KME1 142207Z 21007KT 41/09 A2989 RMK A01 T04110091  RH  015%=      5-min Rain = 0
KME1 142208Z 21010KT 42/09 A2989 RMK A01 T04160091  RH  014%=      5-min Rain = 0
KME1 142209Z 21008G14KT 42/09 A2989 RMK A01 T04190091  RH  014%=      5-min Rain = 0
KME1 142210Z 21008KT 42/09 A2989 RMK A01 T04190089  RH  014%=      5-min Rain = 0
KME1 142211Z 22009KT 42/09 A2989 RMK A01 T04190089  RH  014%=      5-min Rain = 0
KME1 142212Z 20009KT 42/09 A2989 RMK A01 T04240089  RH  014%=      5-min Rain = 0
KME1 142213Z 18007G12KT 42/09 A2989 RMK A01 T04230086  RH  013%=      5-min Rain = 0
KME1 142214Z 18010KT 42/09 A2989 RMK A01 T04190087  RH  014%=      5-min Rain = 0
KME1 142215Z 18009KT 42/09 A2989 RMK A01 T04160086  RH  014%=      5-min Rain = 0
KME1 142216Z 18005KT 42/09 A2989 RMK A01 T04150085  RH  014%=      5-min Rain = 0
KME1 142217Z 21004KT 41/09 A2989 RMK A01 T04130086  RH  014%=      5-min Rain = 0
KME1 142218Z 23005KT 41/09 A2989 RMK A01 T04120088  RH  014%=      5-min Rain = 0
KME1 142219Z 19008KT 42/09 A2989 RMK A01 T04160089  RH  014%=      5-min Rain = 0
KME1 142220Z 20009KT 42/09 A2989 RMK A01 T04190092  RH  014%=      5-min Rain = 0
KME1 142221Z 20010KT 42/09 A2989 RMK A01 T04220091  RH  014%=      5-min Rain = 0
KME1 142222Z 21008KT 42/09 A2989 RMK A01 T04200089  RH  014%=      5-min Rain = 0
KME1 142223Z 21005KT 42/09 A2989 RMK A01 T04190089  RH  014%=      5-min Rain = 0
KME1 142224Z 22005KT 42/09 A2989 RMK A01 T04200087  RH  014%=      5-min Rain = 0
KME1 142225Z 21002KT 42/09 A2989 RMK A01 T04200085  RH  014%=      5-min Rain = 0
KME1 142226Z 24004KT 42/09 A2989 RMK A01 T04190085  RH  014%=      5-min Rain = 0
KME1 142227Z 23005KT 42/09 A2989 RMK A01 T04190086  RH  014%=      5-min Rain = 0
KME1 142228Z 24005KT 42/09 A2989 RMK A01 T04190086  RH  014%=      5-min Rain = 0
KME1 142229Z 26004KT 42/09 A2989 RMK A01 T04180087  RH  014%=      5-min Rain = 0
KME1 142230Z 24008G14KT 42/09 A2989 RMK A01 T04170086  RH  014%=      5-min Rain = 0
KME1 142231Z 22009G14KT 42/09 A2989 RMK A01 T04180086  RH  014%=      5-min Rain = 0
KME1 142232Z 22010KT 42/09 A2989 RMK A01 T04230086  RH  013%=      5-min Rain = 0
KME1 142233Z 23010KT 43/08 A2989 RMK A01 T04250084  RH  013%=      5-min Rain = 0
KME1 142234Z 22010KT 43/08 A2989 RMK A01 T04250084  RH  013%=      5-min Rain = 0
KME1 142235Z 21009KT 42/08 A2989 RMK A01 T04230082  RH  013%=      5-min Rain = 0
KME1 142236Z 22007KT 42/08 A2989 RMK A01 T04180083  RH  013%=      5-min Rain = 0
KME1 142237Z 22008KT 42/08 A2989 RMK A01 T04190084  RH  014%=      5-min Rain = 0
KME1 142238Z 23009KT 42/08 A2989 RMK A01 T04200083  RH  013%=      5-min Rain = 0
KME1 142239Z 24007KT 42/08 A2989 RMK A01 T04190084  RH  013%=      5-min Rain = 0
KME1 142240Z 25005KT 42/08 A2989 RMK A01 T04180084  RH  014%=      5-min Rain = 0
KME1 142241Z 24002KT 42/09 A2988 RMK A01 T04180085  RH  014%=      5-min Rain = 0
KME1 142242Z 27002KT 42/08 A2988 RMK A01 T04190083  RH  013%=      5-min Rain = 0
KME1 142243Z 27002KT 42/08 A2989 RMK A01 T04200083  RH  013%=      5-min Rain = 0
KME1 142244Z 19002KT 42/08 A2989 RMK A01 T04210082  RH  013%=      5-min Rain = 0
KME1 142245Z 22009KT 42/08 A2989 RMK A01 T04210083  RH  013%=      5-min Rain = 0
KME1 142246Z 22011KT 42/08 A2989 RMK A01 T04200081  RH  013%=      5-min Rain = 0
KME1 142247Z 21010KT 42/08 A2988 RMK A01 T04200081  RH  013%=      5-min Rain = 0
KME1 142248Z 21009KT 42/08 A2989 RMK A01 T04190080  RH  013%=      5-min Rain = 0
KME1 142249Z 21007KT 42/08 A2989 RMK A01 T04180081  RH  013%=      5-min Rain = 0
KME1 142250Z 20007KT 42/08 A2989 RMK A01 T04190082  RH  013%=      5-min Rain = 0
KME1 142251Z 20006KT 42/08 A2989 RMK A01 T04180081  RH  013%=      5-min Rain = 0
KME1 142252Z 20005KT 42/08 A2988 RMK A01 T04180081  RH  013%=      5-min Rain = 0
KME1 142253Z 21005KT 42/08 A2988 RMK A01 T04170082  RH  013%=      5-min Rain = 0
KME1 142254Z 24007KT 42/08 A2988 RMK A01 T04190083  RH  013%=      5-min Rain = 0
KME1 142255Z 23006KT 42/08 A2988 RMK A01 T04210080  RH  013%=      5-min Rain = 0
KME1 142256Z 24005KT 42/08 A2988 RMK A01 T04190080  RH  013%=      5-min Rain = 0
KME1 142257Z 25002KT 42/08 A2988 RMK A01 T04180080  RH  013%=      5-min Rain = 0
KME1 142258Z 23006KT 42/08 A2988 RMK A01 T04180081  RH  013%=      5-min Rain = 0
KME1 142259Z 25005KT 42/08 A2988 RMK A01 T04180079  RH  013%=      5-min Rain = 0
KME1 142300Z 26004KT 42/08 A2988 RMK A01 T04170079  RH  013%=      5-min Rain = 0
KME1 142301Z 24003KT 41/08 A2988 RMK A01 T04140078  RH  013%=      5-min Rain = 0
KME1 142302Z 21005KT 41/08 A2988 RMK A01 T04130080  RH  014%=      5-min Rain = 0
KME1 142303Z 19011KT 42/09 A2988 RMK A01 T04150085  RH  014%=      5-min Rain = 0
KME1 142304Z 19009KT 42/09 A2988 RMK A01 T04150087  RH  014%=      5-min Rain = 0
KME1 142305Z 18008KT 42/09 A2988 RMK A01 T04160088  RH  014%=      5-min Rain = 0
KME1 142306Z 19008KT 42/09 A2988 RMK A01 T04150087  RH  014%=      5-min Rain = 0
KME1 142307Z 21007KT 41/09 A2988 RMK A01 T04140086  RH  014%=      5-min Rain = 0
KME1 142308Z 22005KT 41/09 A2988 RMK A01 T04140089  RH  014%=      5-min Rain = 0
KME1 142309Z 24005KT 42/09 A2988 RMK A01 T04150088  RH  014%=      5-min Rain = 0
KME1 142310Z 22006KT 41/09 A2988 RMK A01 T04140088  RH  014%=      5-min Rain = 0
KME1 142311Z 21006KT 41/09 A2988 RMK A01 T04130087  RH  014%=      5-min Rain = 0
KME1 142312Z 20005KT 41/09 A2988 RMK A01 T04130086  RH  014%=      5-min Rain = 0
KME1 142313Z 20004KT 41/09 A2988 RMK A01 T04130086  RH  014%=      5-min Rain = 0
KME1 142314Z 22004KT 41/09 A2988 RMK A01 T04130086  RH  014%=      5-min Rain = 0
KME1 142315Z 21007KT 42/09 A2988 RMK A01 T04150086  RH  014%=      5-min Rain = 0
KME1 142316Z 21008KT 42/09 A2988 RMK A01 T04150086  RH  014%=      5-min Rain = 0
KME1 142317Z 23010KT 42/09 A2988 RMK A01 T04150087  RH  014%=      5-min Rain = 0
KME1 142318Z 23009KT 42/09 A2988 RMK A01 T04150089  RH  014%=      5-min Rain = 0
KME1 142319Z 21009KT 42/09 A2988 RMK A01 T04150087  RH  014%=      5-min Rain = 0
KME1 142320Z 22007G12KT 41/09 A2988 RMK A01 T04140087  RH  014%=      5-min Rain = 0
KME1 142321Z 23007KT 41/09 A2988 RMK A01 T04130088  RH  014%=      5-min Rain = 0
KME1 142322Z 24008KT 41/09 A2988 RMK A01 T04130086  RH  014%=      5-min Rain = 0
KME1 142323Z 24011KT 41/09 A2988 RMK A01 T04130087  RH  014%=      5-min Rain = 0
KME1 142324Z 23005KT 41/09 A2988 RMK A01 T04130087  RH  014%=      5-min Rain = 0
KME1 142325Z 25003KT 41/09 A2988 RMK A01 T04130086  RH  014%=      5-min Rain = 0
KME1 142326Z 24001KT 41/09 A2988 RMK A01 T04130086  RH  014%=      5-min Rain = 0
KME1 142327Z 23007KT 41/09 A2988 RMK A01 T04130088  RH  014%=      5-min Rain = 0
KME1 142328Z 22007KT 41/09 A2988 RMK A01 T04130087  RH  014%=      5-min Rain = 0
KME1 142329Z 22006KT 41/09 A2988 RMK A01 T04130086  RH  014%=      5-min Rain = 0
KME1 142330Z 22006KT 41/09 A2988 RMK A01 T04120085  RH  014%=      5-min Rain = 0
KME1 142331Z 23006KT 41/09 A2988 RMK A01 T04110085  RH  014%=      5-min Rain = 0
KME1 142332Z 22004KT 41/08 A2988 RMK A01 T04110084  RH  014%=      5-min Rain = 0
KME1 142333Z 23004KT 41/08 A2988 RMK A01 T04110083  RH  014%=      5-min Rain = 0
KME1 142334Z 26003KT 41/09 A2988 RMK A01 T04110085  RH  014%=      5-min Rain = 0
KME1 142335Z 25001KT 41/08 A2987 RMK A01 T04120084  RH  014%=      5-min Rain = 0
KME1 142336Z 28006KT 41/09 A2987 RMK A01 T04120085  RH  014%=      5-min Rain = 0
KME1 142337Z 25004KT 41/09 A2987 RMK A01 T04120086  RH  014%=      5-min Rain = 0
KME1 142338Z 24006KT 41/09 A2987 RMK A01 T04120087  RH  014%=      5-min Rain = 0
KME1 142339Z 22005KT 41/09 A2987 RMK A01 T04120087  RH  014%=      5-min Rain = 0
KME1 142340Z 22006KT 41/09 A2987 RMK A01 T04130087  RH  014%=      5-min Rain = 0
KME1 142341Z 21006KT 41/09 A2987 RMK A01 T04130086  RH  014%=      5-min Rain = 0
KME1 142342Z 20005KT 41/09 A2987 RMK A01 T04120085  RH  014%=      5-min Rain = 0
KME1 142343Z 23004KT 41/08 A2987 RMK A01 T04120084  RH  014%=      5-min Rain = 0
KME1 142344Z 22006KT 41/09 A2987 RMK A01 T04120085  RH  014%=      5-min Rain = 0
KME1 142345Z 19008KT 41/09 A2987 RMK A01 T04120089  RH  015%=      5-min Rain = 0
KME1 142346Z 20008KT 41/10 A2987 RMK A01 T04120095  RH  015%=      5-min Rain = 0
KME1 142347Z 22009KT 41/10 A2987 RMK A01 T04110095  RH  015%=      5-min Rain = 0
KME1 142348Z 22010KT 41/10 A2987 RMK A01 T04100095  RH  015%=      5-min Rain = 0
KME1 142349Z 22009KT 41/10 A2987 RMK A01 T04100095  RH  015%=      5-min Rain = 0
KME1 142350Z 23007KT 41/10 A2987 RMK A01 T04100095  RH  015%=      5-min Rain = 0
KME1 142351Z 24006KT 41/10 A2987 RMK A01 T04100095  RH  015%=      5-min Rain = 0
KME1 142352Z 24007KT 41/10 A2987 RMK A01 T04100095  RH  015%=      5-min Rain = 0
KME1 142353Z 24007KT 41/09 A2987 RMK A01 T04090094  RH  015%=      5-min Rain = 0
KME1 142354Z 25008KT 41/10 A2987 RMK A01 T04080095  RH  015%=      5-min Rain = 0
KME1 142355Z 25005KT 41/09 A2987 RMK A01 T04080094  RH  015%=      5-min Rain = 0
KME1 142356Z 18004KT 41/09 A2987 RMK A01 T04080094  RH  015%=      5-min Rain = 0
KME1 142357Z 18005KT 41/10 A2987 RMK A01 T04070095  RH  015%=      5-min Rain = 0
KME1 142358Z 16005KT 41/10 A2987 RMK A01 T04060096  RH  016%=      5-min Rain = 0
KME1 142359Z 17007KT 41/10 A2987 RMK A01 T04060096  RH  016%=      5-min Rain = 0
KME1 150000Z 15008KT 41/10 A2987 RMK A01 T04050096  RH  016%=      5-min Rain = 0
KME1 150001Z 17009KT 41/10 A2987 RMK A01 T04050097  RH  016%=      5-min Rain = 0
KME1 150002Z 17009KT 40/10 A2987 RMK A01 T04040097  RH  016%=      5-min Rain = 0
KME1 150003Z 16009KT 40/10 A2987 RMK A01 T04020096  RH  016%=      5-min Rain = 0
KME1 150004Z 16008KT 40/10 A2987 RMK A01 T04010097  RH  016%=      5-min Rain = 0
KME1 150005Z 16008KT 40/10 A2988 RMK A01 T04000097  RH  016%=      5-min Rain = 0
KME1 150006Z 17007KT 40/10 A2988 RMK A01 T04000097  RH  016%=      5-min Rain = 0
KME1 150007Z 17007KT 40/10 A2988 RMK A01 T03990097  RH  016%=      5-min Rain = 0
KME1 150008Z 21008KT 40/10 A2988 RMK A01 T03990098  RH  016%=      5-min Rain = 0
KME1 150009Z 20008KT 40/10 A2988 RMK A01 T03980097  RH  016%=      5-min Rain = 0
KME1 150010Z 21008KT 40/10 A2988 RMK A01 T03990096  RH  016%=      5-min Rain = 0
KME1 150011Z 21005KT 40/10 A2988 RMK A01 T03980096  RH  016%=      5-min Rain = 0
KME1 150012Z 20006KT 40/10 A2988 RMK A01 T03990096  RH  016%=      5-min Rain = 0
KME1 150013Z 19009KT 40/10 A2988 RMK A01 T03990095  RH  016%=      5-min Rain = 0
KME1 150014Z 19008KT 40/10 A2988 RMK A01 T03990096  RH  016%=      5-min Rain = 0
KME1 150015Z 20008KT 40/10 A2988 RMK A01 T03990096  RH  016%=      5-min Rain = 0
KME1 150016Z 21007KT 40/10 A2988 RMK A01 T03990096  RH  016%=      5-min Rain = 0
KME1 150017Z 21006KT 40/10 A2988 RMK A01 T03990095  RH  016%=      5-min Rain = 0
KME1 150018Z 21008KT 40/10 A2988 RMK A01 T03990095  RH  016%=      5-min Rain = 0
KME1 150019Z 19007KT 40/10 A2988 RMK A01 T03990095  RH  016%=      5-min Rain = 0
KME1 150020Z 20006KT 40/10 A2988 RMK A01 T03990096  RH  016%=      5-min Rain = 0
KME1 150021Z 20007KT 40/10 A2988 RMK A01 T03990096  RH  016%=      5-min Rain = 0
KME1 150022Z 20007KT 40/10 A2988 RMK A01 T03990096  RH  016%=      5-min Rain = 0
KME1 150023Z 20007KT 40/10 A2988 RMK A01 T03990096  RH  016%=      5-min Rain = 0
KME1 150024Z 20006KT 40/10 A2988 RMK A01 T03990096  RH  016%=      5-min Rain = 0
KME1 150025Z 20006KT 40/10 A2988 RMK A01 T03990096  RH  016%=      5-min Rain = 0
KME1 150026Z 18005KT 40/10 A2988 RMK A01 T03990096  RH  016%=      5-min Rain = 0
KME1 150027Z 18005KT 40/10 A2988 RMK A01 T03990097  RH  016%=      5-min Rain = 0
KME1 150028Z 17007KT 40/10 A2988 RMK A01 T03990099  RH  017%=      5-min Rain = 0
KME1 150029Z 17006KT 40/10 A2988 RMK A01 T03980100  RH  017%=      5-min Rain = 0
KME1 150030Z 18006KT 40/10 A2988 RMK A01 T03980100  RH  017%=      5-min Rain = 0
KME1 150031Z 18005KT 40/10 A2988 RMK A01 T03970101  RH  017%=      5-min Rain = 0
KME1 150032Z 17007KT 40/10 A2988 RMK A01 T03970100  RH  017%=      5-min Rain = 0
KME1 150033Z 18008KT 40/10 A2988 RMK A01 T03960099  RH  017%=      5-min Rain = 0
KME1 150034Z 19007KT 40/10 A2988 RMK A01 T03960099  RH  017%=      5-min Rain = 0
KME1 150035Z 19007KT 40/10 A2988 RMK A01 T03960099  RH  017%=      5-min Rain = 0
KME1 150036Z 18007KT 40/10 A2988 RMK A01 T03960099  RH  017%=      5-min Rain = 0
KME1 150037Z 18008KT 40/10 A2988 RMK A01 T03950099  RH  017%=      5-min Rain = 0
KME1 150038Z 18008KT 40/10 A2988 RMK A01 T03950100  RH  017%=      5-min Rain = 0
KME1 150039Z 18008KT 39/10 A2988 RMK A01 T03940101  RH  017%=      5-min Rain = 0
KME1 150040Z 18007KT 39/10 A2988 RMK A01 T03930102  RH  017%=      5-min Rain = 0
KME1 150041Z 17007KT 39/10 A2988 RMK A01 T03920103  RH  018%=      5-min Rain = 0
KME1 150042Z 18007KT 39/10 A2988 RMK A01 T03910104  RH  018%=      5-min Rain = 0
KME1 150043Z 18007KT 39/10 A2988 RMK A01 T03900104  RH  018%=      5-min Rain = 0
KME1 150044Z 17008KT 39/10 A2988 RMK A01 T03890104  RH  018%=      5-min Rain = 0
KME1 150045Z 18008KT 39/10 A2988 RMK A01 T03890104  RH  018%=      5-min Rain = 0
KME1 150046Z 18007KT 39/10 A2988 RMK A01 T03880103  RH  018%=      5-min Rain = 0
KME1 150047Z 17007KT 39/10 A2988 RMK A01 T03870104  RH  018%=      5-min Rain = 0
KME1 150048Z 18007KT 39/10 A2988 RMK A01 T03870104  RH  018%=      5-min Rain = 0
KME1 150049Z 17007KT 39/11 A2988 RMK A01 T03860105  RH  018%=      5-min Rain = 0
KME1 150050Z 18007KT 39/11 A2988 RMK A01 T03850105  RH  019%=      5-min Rain = 0
KME1 150051Z 18006KT 38/11 A2988 RMK A01 T03840105  RH  019%=      5-min Rain = 0
KME1 150052Z 18007KT 38/11 A2988 RMK A01 T03840105  RH  019%=      5-min Rain = 0
KME1 150053Z 18007KT 38/10 A2988 RMK A01 T03830104  RH  019%=      5-min Rain = 0
KME1 150054Z 18007KT 38/10 A2988 RMK A01 T03830103  RH  019%=      5-min Rain = 0
KME1 150055Z 18006KT 38/10 A2988 RMK A01 T03820103  RH  019%=      5-min Rain = 0
KME1 150056Z 18006KT 38/10 A2988 RMK A01 T03820104  RH  019%=      5-min Rain = 0
KME1 150057Z 18006KT 38/10 A2988 RMK A01 T03810104  RH  019%=      5-min Rain = 0
KME1 150058Z 18005KT 38/11 A2988 RMK A01 T03790105  RH  019%=      5-min Rain = 0
KME1 150059Z 18006KT 38/11 A2989 RMK A01 T03780105  RH  019%=      5-min Rain = 0
KME1 150100Z 18006KT 38/10 A2989 RMK A01 T03780104  RH  019%=      5-min Rain = 0
KME1 150101Z 19007KT 38/10 A2989 RMK A01 T03780104  RH  019%=      5-min Rain = 0
KME1 150102Z 18005KT 38/10 A2989 RMK A01 T03780104  RH  019%=      5-min Rain = 0
KME1 150103Z 18005KT 38/11 A2989 RMK A01 T03780105  RH  019%=      5-min Rain = 0
KME1 150104Z 18005KT 38/11 A2989 RMK A01 T03770105  RH  019%=      5-min Rain = 0
KME1 150105Z 19005KT 38/11 A2989 RMK A01 T03760106  RH  020%=      5-min Rain = 0
KME1 150106Z 18005KT 38/11 A2989 RMK A01 T03750106  RH  020%=      5-min Rain = 0
KME1 150107Z 18005KT 38/11 A2989 RMK A01 T03750106  RH  020%=      5-min Rain = 0
KME1 150108Z 18005KT 38/11 A2989 RMK A01 T03750106  RH  020%=      5-min Rain = 0
KME1 150109Z 18005KT 37/11 A2989 RMK A01 T03740106  RH  020%=      5-min Rain = 0
KME1 150110Z 18005KT 37/11 A2989 RMK A01 T03730106  RH  020%=      5-min Rain = 0
KME1 150111Z 18005KT 37/11 A2989 RMK A01 T03720106  RH  020%=      5-min Rain = 0
KME1 150112Z 18006KT 37/11 A2989 RMK A01 T03710106  RH  020%=      5-min Rain = 0
KME1 150113Z 18006KT 37/11 A2989 RMK A01 T03700105  RH  020%=      5-min Rain = 0
KME1 150114Z 18006KT 37/11 A2989 RMK A01 T03700106  RH  020%=      5-min Rain = 0
KME1 150115Z 18006KT 37/11 A2989 RMK A01 T03690106  RH  020%=      5-min Rain = 0
KME1 150116Z 18006KT 37/11 A2989 RMK A01 T03680105  RH  020%=      5-min Rain = 0
KME1 150117Z 18006KT 37/11 A2989 RMK A01 T03670105  RH  021%=      5-min Rain = 0
KME1 150118Z 18005KT 37/11 A2989 RMK A01 T03660105  RH  021%=      5-min Rain = 0
KME1 150119Z 18005KT 37/11 A2989 RMK A01 T03660105  RH  021%=      5-min Rain = 0
KME1 150120Z 18006KT 36/11 A2989 RMK A01 T03640105  RH  021%=      5-min Rain = 0
KME1 150121Z 19005KT 36/11 A2989 RMK A01 T03640105  RH  021%=      5-min Rain = 0
KME1 150122Z 19005KT 36/11 A2989 RMK A01 T03630105  RH  021%=      5-min Rain = 0
KME1 150123Z 18006KT 36/11 A2989 RMK A01 T03620105  RH  021%=      5-min Rain = 0
KME1 150124Z 19005KT 36/11 A2989 RMK A01 T03620105  RH  021%=      5-min Rain = 0
KME1 150125Z 19005KT 36/11 A2989 RMK A01 T03610105  RH  021%=      5-min Rain = 0
KME1 150126Z 19005KT 36/11 A2989 RMK A01 T03600106  RH  021%=      5-min Rain = 0
KME1 150127Z 19006KT 36/11 A2989 RMK A01 T03610106  RH  021%=      5-min Rain = 0
KME1 150128Z 19005KT 36/11 A2989 RMK A01 T03600106  RH  021%=      5-min Rain = 0
KME1 150129Z 18005KT 36/11 A2989 RMK A01 T03610107  RH  022%=      5-min Rain = 0
KME1 150130Z 19006KT 36/11 A299 RMK A01 T03600107  RH  022%=      5-min Rain = 0
KME1 150131Z 18005KT 36/11 A299 RMK A01 T03600107  RH  022%=      5-min Rain = 0
KME1 150132Z 19005KT 36/11 A299 RMK A01 T03590108  RH  022%=      5-min Rain = 0
KME1 150133Z 18005KT 36/11 A299 RMK A01 T03580107  RH  022%=      5-min Rain = 0
KME1 150134Z 19005KT 36/11 A299 RMK A01 T03570108  RH  022%=      5-min Rain = 0
KME1 150135Z 18005KT 36/11 A299 RMK A01 T03570108  RH  022%=      5-min Rain = 0
KME1 150136Z 18005KT 36/11 A299 RMK A01 T03560108  RH  022%=      5-min Rain = 0
KME1 150137Z 18005KT 36/11 A299 RMK A01 T03550108  RH  022%=      5-min Rain = 0
KME1 150138Z 18005KT 36/11 A299 RMK A01 T03550108  RH  022%=      5-min Rain = 0
KME1 150139Z 18005KT 35/11 A299 RMK A01 T03540108  RH  023%=      5-min Rain = 0
KME1 150140Z 19004KT 35/11 A299 RMK A01 T03530108  RH  023%=      5-min Rain = 0
KME1 150141Z 18004KT 35/11 A299 RMK A01 T03520108  RH  023%=      5-min Rain = 0
KME1 150142Z 18005KT 35/11 A299 RMK A01 T03510108  RH  023%=      5-min Rain = 0
KME1 150143Z 19004KT 35/11 A299 RMK A01 T03500108  RH  023%=      5-min Rain = 0
KME1 150144Z 18004KT 35/11 A299 RMK A01 T03500108  RH  023%=      5-min Rain = 0
KME1 150145Z 19005KT 35/11 A299 RMK A01 T03490108  RH  023%=      5-min Rain = 0
KME1 150146Z 19005KT 35/11 A299 RMK A01 T03490109  RH  023%=      5-min Rain = 0
KME1 150147Z 19004KT 35/11 A299 RMK A01 T03490109  RH  023%=      5-min Rain = 0
KME1 150148Z 19005KT 35/11 A299 RMK A01 T03480108  RH  023%=      5-min Rain = 0
KME1 150149Z 19005KT 35/11 A299 RMK A01 T03460108  RH  024%=      5-min Rain = 0
KME1 150150Z 19004KT 35/11 A299 RMK A01 T03450108  RH  024%=      5-min Rain = 0
KME1 150151Z 19005KT 34/11 A299 RMK A01 T03440108  RH  024%=      5-min Rain = 0
KME1 150152Z 19004KT 34/11 A299 RMK A01 T03420108  RH  024%=      5-min Rain = 0
KME1 150153Z 19004KT 34/11 A299 RMK A01 T03420108  RH  024%=      5-min Rain = 0
KME1 150154Z 19004KT 34/11 A299 RMK A01 T03410108  RH  024%=      5-min Rain = 0
KME1 150155Z 18005KT 34/11 A299 RMK A01 T03410108  RH  024%=      5-min Rain = 0
KME1 150156Z 18005KT 34/11 A299 RMK A01 T03410109  RH  024%=      5-min Rain = 0
KME1 150157Z 18005KT 34/11 A299 RMK A01 T03400109  RH  024%=      5-min Rain = 0
KME1 150158Z 18004KT 34/11 A299 RMK A01 T03390109  RH  025%=      5-min Rain = 0
KME1 150159Z 18004KT 34/11 A299 RMK A01 T03380109  RH  025%=      5-min Rain = 0
KME1 150200Z 18005KT 34/11 A299 RMK A01 T03380109  RH  025%=      5-min Rain = 0
KME1 150201Z 18005KT 34/11 A299 RMK A01 T03370109  RH  025%=      5-min Rain = 0
KME1 150202Z 19005KT 34/11 A299 RMK A01 T03370109  RH  025%=      5-min Rain = 0
KME1 150203Z 19005KT 34/11 A299 RMK A01 T03370109  RH  025%=      5-min Rain = 0
KME1 150204Z 19005KT 34/11 A299 RMK A01 T03370109  RH  025%=      5-min Rain = 0
KME1 150205Z 19004KT 34/11 A299 RMK A01 T03360109  RH  025%=      5-min Rain = 0
KME1 150206Z 19005KT 34/11 A299 RMK A01 T03360109  RH  025%=      5-min Rain = 0
KME1 150207Z 20006KT 34/11 A2991 RMK A01 T03350109  RH  025%=      5-min Rain = 0
KME1 150208Z 20005KT 33/11 A2991 RMK A01 T03340109  RH  025%=      5-min Rain = 0
KME1 150209Z 20005KT 33/11 A2991 RMK A01 T03330109  RH  026%=      5-min Rain = 0
KME1 150210Z 20005KT 33/11 A2991 RMK A01 T03310110  RH  026%=      5-min Rain = 0
KME1 150211Z 20005KT 33/11 A2991 RMK A01 T03290110  RH  026%=      5-min Rain = 0
KME1 150212Z 20005KT 33/11 A2991 RMK A01 T03280110  RH  026%=      5-min Rain = 0
KME1 150213Z 20005KT 33/11 A2991 RMK A01 T03270110  RH  027%=      5-min Rain = 0
KME1 150214Z 20005KT 33/11 A2991 RMK A01 T03270110  RH  027%=      5-min Rain = 0
KME1 150215Z 20005KT 33/11 A2991 RMK A01 T03260110  RH  027%=      5-min Rain = 0
KME1 150216Z 21005KT 33/11 A2991 RMK A01 T03260109  RH  027%=      5-min Rain = 0
KME1 150217Z 21005KT 33/11 A2991 RMK A01 T03250109  RH  027%=      5-min Rain = 0
KME1 150218Z 21005KT 33/11 A2991 RMK A01 T03250109  RH  027%=      5-min Rain = 0
KME1 150219Z 21005KT 32/11 A2991 RMK A01 T03240108  RH  027%=      5-min Rain = 0
KME1 150220Z 20005KT 32/11 A2991 RMK A01 T03230107  RH  027%=      5-min Rain = 0
KME1 150221Z 21004KT 32/11 A2991 RMK A01 T03230106  RH  027%=      5-min Rain = 0
KME1 150222Z 21004KT 32/11 A2991 RMK A01 T03220106  RH  027%=      5-min Rain = 0
KME1 150223Z 21004KT 32/11 A2991 RMK A01 T03220106  RH  027%=      5-min Rain = 0
KME1 150224Z 20004KT 32/11 A2991 RMK A01 T03210106  RH  027%=      5-min Rain = 0
KME1 150225Z 20004KT 32/11 A2991 RMK A01 T03210105  RH  027%=      5-min Rain = 0
KME1 150226Z 20004KT 32/11 A2991 RMK A01 T03210106  RH  027%=      5-min Rain = 0
KME1 150227Z 20004KT 32/11 A2991 RMK A01 T03210105  RH  027%=      5-min Rain = 0
KME1 150228Z 20004KT 32/11 A2991 RMK A01 T03210106  RH  027%=      5-min Rain = 0
KME1 150229Z 20004KT 32/11 A2991 RMK A01 T03210105  RH  027%=      5-min Rain = 0
KME1 150230Z 20004KT 32/11 A2991 RMK A01 T03210105  RH  027%=      5-min Rain = 0
KME1 150231Z 19004KT 32/11 A2991 RMK A01 T03210105  RH  026%=      5-min Rain = 0
KME1 150232Z 19004KT 32/11 A2991 RMK A01 T03210106  RH  027%=      5-min Rain = 0
KME1 150233Z 19004KT 32/11 A2991 RMK A01 T03200106  RH  027%=      5-min Rain = 0
KME1 150234Z 19004KT 32/11 A2991 RMK A01 T03200106  RH  027%=      5-min Rain = 0
KME1 150235Z 18004KT 32/11 A2991 RMK A01 T03200106  RH  027%=      5-min Rain = 0
KME1 150236Z 19004KT 32/11 A2991 RMK A01 T03210106  RH  027%=      5-min Rain = 0
KME1 150237Z 19004KT 32/11 A2991 RMK A01 T03210106  RH  027%=      5-min Rain = 0
KME1 150238Z 19003KT 32/11 A2991 RMK A01 T03210106  RH  027%=      5-min Rain = 0
KME1 150239Z 19003KT 32/11 A2991 RMK A01 T03190106  RH  027%=      5-min Rain = 0
KME1 150240Z 19004KT 32/11 A2991 RMK A01 T03170105  RH  027%=      5-min Rain = 0
KME1 150241Z 20004KT 32/11 A2991 RMK A01 T03160106  RH  027%=      5-min Rain = 0
KME1 150242Z 20004KT 32/11 A2991 RMK A01 T03150105  RH  028%=      5-min Rain = 0
KME1 150243Z 20004KT 31/11 A2991 RMK A01 T03140105  RH  028%=      5-min Rain = 0
KME1 150244Z 19004KT 31/11 A2991 RMK A01 T03130106  RH  028%=      5-min Rain = 0
KME1 150245Z 19004KT 31/11 A2991 RMK A01 T03130106  RH  028%=      5-min Rain = 0
KME1 150246Z 19004KT 31/11 A2991 RMK A01 T03130106  RH  028%=      5-min Rain = 0
KME1 150247Z 20004KT 31/11 A2991 RMK A01 T03130106  RH  028%=      5-min Rain = 0
KME1 150248Z 20004KT 31/11 A2992 RMK A01 T03140106  RH  028%=      5-min Rain = 0
KME1 150249Z 20004KT 31/11 A2992 RMK A01 T03140106  RH  028%=      5-min Rain = 0
KME1 150250Z 20005KT 31/11 A2992 RMK A01 T03140106  RH  028%=      5-min Rain = 0
KME1 150251Z 20005KT 31/11 A2992 RMK A01 T03140106  RH  028%=      5-min Rain = 0
KME1 150252Z 20005KT 31/11 A2992 RMK A01 T03140107  RH  028%=      5-min Rain = 0
KME1 150253Z 20004KT 31/11 A2992 RMK A01 T03140107  RH  028%=      5-min Rain = 0
KME1 150254Z 20005KT 31/11 A2992 RMK A01 T03140107  RH  028%=      5-min Rain = 0
KME1 150255Z 20005KT 31/11 A2992 RMK A01 T03130107  RH  028%=      5-min Rain = 0
KME1 150256Z 20005KT 31/11 A2992 RMK A01 T03140108  RH  028%=      5-min Rain = 0
KME1 150257Z 20005KT 31/11 A2992 RMK A01 T03140108  RH  028%=      5-min Rain = 0
KME1 150258Z 20004KT 32/11 A2992 RMK A01 T03150108  RH  028%=      5-min Rain = 0
KME1 150259Z 20004KT 32/11 A2992 RMK A01 T03150109  RH  028%=      5-min Rain = 0
KME1 150300Z 20005KT 32/11 A2992 RMK A01 T03150109  RH  028%=      5-min Rain = 0
KME1 150301Z 19005KT 32/11 A2992 RMK A01 T03160110  RH  028%=      5-min Rain = 0
KME1 150302Z 20005KT 32/11 A2992 RMK A01 T03160110  RH  028%=      5-min Rain = 0
KME1 150303Z 19004KT 32/11 A2992 RMK A01 T03160110  RH  028%=      5-min Rain = 0
KME1 150304Z 19005KT 32/11 A2992 RMK A01 T03160110  RH  028%=      5-min Rain = 0
KME1 150305Z 20005KT 32/11 A2992 RMK A01 T03170111  RH  028%=      5-min Rain = 0
KME1 150306Z 20005KT 32/11 A2992 RMK A01 T03180111  RH  028%=      5-min Rain = 0
KME1 150307Z 20004KT 32/11 A2992 RMK A01 T03180111  RH  028%=      5-min Rain = 0
KME1 150308Z 21005KT 32/11 A2992 RMK A01 T03180111  RH  028%=      5-min Rain = 0
KME1 150309Z 21005KT 32/11 A2992 RMK A01 T03180111  RH  028%=      5-min Rain = 0
KME1 150310Z 20005KT 32/11 A2992 RMK A01 T03180111  RH  028%=      5-min Rain = 0
KME1 150311Z 20005KT 32/11 A2992 RMK A01 T03180112  RH  028%=      5-min Rain = 0
KME1 150312Z 21005KT 32/11 A2992 RMK A01 T03190112  RH  028%=      5-min Rain = 0
KME1 150313Z 20005KT 32/11 A2992 RMK A01 T03200112  RH  028%=      5-min Rain = 0
KME1 150314Z 20005KT 32/11 A2992 RMK A01 T03210112  RH  028%=      5-min Rain = 0
KME1 150315Z 20005KT 32/11 A2992 RMK A01 T03220113  RH  028%=      5-min Rain = 0
KME1 150316Z 20005KT 32/11 A2992 RMK A01 T03230113  RH  028%=      5-min Rain = 0
KME1 150317Z 20005KT 32/11 A2992 RMK A01 T03230113  RH  028%=      5-min Rain = 0
KME1 150318Z 20006KT 32/11 A2992 RMK A01 T03240113  RH  028%=      5-min Rain = 0
KME1 150319Z 20006KT 33/11 A2992 RMK A01 T03250113  RH  027%=      5-min Rain = 0
KME1 150320Z 20007KT 33/11 A2992 RMK A01 T03260114  RH  027%=      5-min Rain = 0
KME1 150321Z 20006KT 33/11 A2992 RMK A01 T03270114  RH  027%=      5-min Rain = 0
KME1 150322Z 20005KT 33/11 A2992 RMK A01 T03280114  RH  027%=      5-min Rain = 0
KME1 150323Z 20006KT 33/11 A2992 RMK A01 T03280114  RH  027%=      5-min Rain = 0
KME1 150324Z 19006KT 33/11 A2992 RMK A01 T03290114  RH  027%=      5-min Rain = 0
KME1 150325Z 20006KT 33/11 A2992 RMK A01 T03290114  RH  027%=      5-min Rain = 0
KME1 150326Z 20007KT 33/12 A2992 RMK A01 T03290115  RH  027%=      5-min Rain = 0
KME1 150327Z 20007KT 33/12 A2992 RMK A01 T03300115  RH  027%=      5-min Rain = 0
KME1 150328Z 20006KT 33/12 A2992 RMK A01 T03310115  RH  027%=      5-min Rain = 0
KME1 150329Z 20006KT 33/12 A2992 RMK A01 T03320115  RH  027%=      5-min Rain = 0
KME1 150330Z 20007KT 33/12 A2992 RMK A01 T03320115  RH  027%=      5-min Rain = 0
KME1 150331Z 20006KT 33/12 A2992 RMK A01 T03330116  RH  027%=      5-min Rain = 0
KME1 150332Z 20007KT 33/12 A2992 RMK A01 T03330116  RH  027%=      5-min Rain = 0
KME1 150333Z 20006KT 33/12 A2992 RMK A01 T03340116  RH  027%=      5-min Rain = 0
KME1 150334Z 19006KT 33/12 A2992 RMK A01 T03340116  RH  027%=      5-min Rain = 0
KME1 150335Z 20007KT 33/12 A2992 RMK A01 T03340117  RH  027%=      5-min Rain = 0
KME1 150336Z 20007KT 34/12 A2992 RMK A01 T03350117  RH  027%=      5-min Rain = 0
KME1 150337Z 20007KT 34/12 A2992 RMK A01 T03360118  RH  027%=      5-min Rain = 0
KME1 150338Z 19007KT 34/12 A2992 RMK A01 T03370118  RH  026%=      5-min Rain = 0
KME1 150339Z 20008KT 34/12 A2992 RMK A01 T03370118  RH  026%=      5-min Rain = 0
KME1 150340Z 19007KT 34/12 A2992 RMK A01 T03370118  RH  026%=      5-min Rain = 0
KME1 150341Z 20007KT 34/12 A2992 RMK A01 T03370119  RH  026%=      5-min Rain = 0
KME1 150342Z 19007KT 34/12 A2992 RMK A01 T03370119  RH  027%=      5-min Rain = 0
KME1 150343Z 20007KT 34/12 A2992 RMK A01 T03370119  RH  027%=      5-min Rain = 0
KME1 150344Z 19007KT 34/12 A2992 RMK A01 T03370119  RH  027%=      5-min Rain = 0
KME1 150345Z 20007KT 34/12 A2992 RMK A01 T03370119  RH  027%=      5-min Rain = 0
KME1 150346Z 19007KT 34/12 A2992 RMK A01 T03360119  RH  027%=      5-min Rain = 0
KME1 150347Z 20006KT 34/12 A2992 RMK A01 T03360119  RH  027%=      5-min Rain = 0
KME1 150348Z 19005KT 34/12 A2992 RMK A01 T03360119  RH  027%=      5-min Rain = 0
KME1 150349Z 19008KT 34/12 A2992 RMK A01 T03350119  RH  027%=      5-min Rain = 0
KME1 150350Z 20007KT 34/12 A2992 RMK A01 T03350120  RH  027%=      5-min Rain = 0
KME1 150351Z 19007KT 34/12 A2992 RMK A01 T03350120  RH  027%=      5-min Rain = 0
KME1 150352Z 19007KT 34/12 A2992 RMK A01 T03350120  RH  027%=      5-min Rain = 0
KME1 150353Z 19007KT 34/12 A2992 RMK A01 T03350120  RH  027%=      5-min Rain = 0
KME1 150354Z 20007KT 34/12 A2992 RMK A01 T03350120  RH  027%=      5-min Rain = 0
KME1 150355Z 20007KT 33/12 A2992 RMK A01 T03340120  RH  027%=      5-min Rain = 0
KME1 150356Z 19007KT 33/12 A2992 RMK A01 T03340120  RH  027%=      5-min Rain = 0
KME1 150357Z 19007KT 33/12 A2992 RMK A01 T03340120  RH  027%=      5-min Rain = 0
KME1 150358Z 19007KT 33/12 A2992 RMK A01 T03340120  RH  027%=      5-min Rain = 0
KME1 150359Z 20007KT 33/12 A2992 RMK A01 T03340120  RH  027%=      5-min Rain = 0
KME1 150400Z 20007KT 33/12 A2992 RMK A01 T03330120  RH  027%=      5-min Rain = 0
KME1 150401Z 19008KT 33/12 A2992 RMK A01 T03320120  RH  027%=      5-min Rain = 0
KME1 150402Z 20006KT 33/12 A2992 RMK A01 T03330120  RH  028%=      5-min Rain = 0
KME1 150403Z 19007KT 33/12 A2992 RMK A01 T03320121  RH  028%=      5-min Rain = 0
KME1 150404Z 20007KT 33/12 A2992 RMK A01 T03320121  RH  028%=      5-min Rain = 0
KME1 150405Z 19007KT 33/12 A2992 RMK A01 T03320121  RH  028%=      5-min Rain = 0
KME1 150406Z 20005KT 33/12 A2992 RMK A01 T03310121  RH  028%=      5-min Rain = 0
KME1 150407Z 19008KT 33/12 A2992 RMK A01 T03310121  RH  028%=      5-min Rain = 0
KME1 150408Z 20008KT 33/12 A2992 RMK A01 T03310121  RH  028%=      5-min Rain = 0
KME1 150409Z 20006KT 33/12 A2992 RMK A01 T03310121  RH  028%=      5-min Rain = 0
KME1 150410Z 20008KT 33/12 A2992 RMK A01 T03310122  RH  028%=      5-min Rain = 0
KME1 150411Z 19007KT 33/12 A2992 RMK A01 T03310122  RH  028%=      5-min Rain = 0
KME1 150412Z 20007KT 33/12 A2992 RMK A01 T03300122  RH  028%=      5-min Rain = 0
KME1 150413Z 20007KT 33/12 A2992 RMK A01 T03300122  RH  028%=      5-min Rain = 0
KME1 150414Z 19006KT 33/12 A2992 RMK A01 T03300122  RH  028%=      5-min Rain = 0
KME1 150415Z 20006KT 33/12 A2992 RMK A01 T03290122  RH  028%=      5-min Rain = 0
KME1 150416Z 20008KT 33/12 A2992 RMK A01 T03290123  RH  029%=      5-min Rain = 0
KME1 150417Z 20007KT 33/12 A2992 RMK A01 T03290123  RH  029%=      5-min Rain = 0
KME1 150418Z 20006KT 33/12 A2992 RMK A01 T03290123  RH  029%=      5-min Rain = 0
KME1 150419Z 20006KT 33/12 A2993 RMK A01 T03280123  RH  029%=      5-min Rain = 0
KME1 150420Z 20006KT 33/12 A2993 RMK A01 T03280123  RH  029%=      5-min Rain = 0
KME1 150421Z 20006KT 33/12 A2993 RMK A01 T03290124  RH  029%=      5-min Rain = 0
KME1 150422Z 20005KT 33/12 A2993 RMK A01 T03280123  RH  029%=      5-min Rain = 0
KME1 150423Z 20006KT 33/12 A2993 RMK A01 T03270123  RH  029%=      5-min Rain = 0
KME1 150424Z 20007KT 33/12 A2993 RMK A01 T03270123  RH  029%=      5-min Rain = 0
KME1 150425Z 20006KT 33/12 A2993 RMK A01 T03260123  RH  029%=      5-min Rain = 0
KME1 150426Z 20007KT 33/12 A2993 RMK A01 T03260123  RH  029%=      5-min Rain = 0
KME1 150427Z 20006KT 33/12 A2993 RMK A01 T03260123  RH  029%=      5-min Rain = 0
KME1 150428Z 20007KT 33/12 A2993 RMK A01 T03250123  RH  029%=      5-min Rain = 0
KME1 150429Z 20006KT 33/12 A2993 RMK A01 T03250123  RH  029%=      5-min Rain = 0
KME1 150430Z 20006KT 32/12 A2993 RMK A01 T03240123  RH  029%=      5-min Rain = 0
KME1 150431Z 20007KT 33/12 A2993 RMK A01 T03250123  RH  029%=      5-min Rain = 0
KME1 150432Z 20007KT 33/12 A2993 RMK A01 T03250124  RH  029%=      5-min Rain = 0
KME1 150433Z 20006KT 33/12 A2993 RMK A01 T03250123  RH  029%=      5-min Rain = 0
KME1 150434Z 20007KT 32/12 A2993 RMK A01 T03240123  RH  029%=      5-min Rain = 0
KME1 150435Z 20007KT 32/12 A2993 RMK A01 T03240124  RH  030%=      5-min Rain = 0
KME1 150436Z 20007KT 32/12 A2993 RMK A01 T03240124  RH  030%=      5-min Rain = 0
KME1 150437Z 20007KT 32/12 A2993 RMK A01 T03240124  RH  030%=      5-min Rain = 0
KME1 150438Z 20006KT 32/12 A2993 RMK A01 T03240124  RH  030%=      5-min Rain = 0
KME1 150439Z 21007KT 32/12 A2993 RMK A01 T03230124  RH  030%=      5-min Rain = 0
KME1 150440Z 20007KT 32/12 A2993 RMK A01 T03230124  RH  030%=      5-min Rain = 0
KME1 150441Z 20007KT 32/12 A2993 RMK A01 T03220124  RH  030%=      5-min Rain = 0
KME1 150442Z 20008KT 32/12 A2993 RMK A01 T03220124  RH  030%=      5-min Rain = 0
KME1 150443Z 20007KT 32/12 A2993 RMK A01 T03220124  RH  030%=      5-min Rain = 0
KME1 150444Z 20006KT 32/12 A2993 RMK A01 T03220124  RH  030%=      5-min Rain = 0
KME1 150445Z 20007KT 32/12 A2993 RMK A01 T03210124  RH  030%=      5-min Rain = 0
KME1 150446Z 19007KT 32/12 A2993 RMK A01 T03210124  RH  030%=      5-min Rain = 0
KME1 150447Z 19007KT 32/12 A2993 RMK A01 T03210124  RH  030%=      5-min Rain = 0
KME1 150448Z 19008KT 32/12 A2993 RMK A01 T03210124  RH  030%=      5-min Rain = 0
KME1 150449Z 19007KT 32/12 A2993 RMK A01 T03210124  RH  030%=      5-min Rain = 0
KME1 150450Z 20007KT 32/13 A2993 RMK A01 T03220125  RH  030%=      5-min Rain = 0
KME1 150451Z 19007KT 32/13 A2993 RMK A01 T03220125  RH  030%=      5-min Rain = 0
KME1 150452Z 19007KT 32/12 A2993 RMK A01 T03210124  RH  030%=      5-min Rain = 0
KME1 150453Z 20007KT 32/13 A2993 RMK A01 T03210125  RH  030%=      5-min Rain = 0
KME1 150454Z 19008KT 32/13 A2993 RMK A01 T03210125  RH  030%=      5-min Rain = 0
KME1 150455Z 20007KT 32/13 A2993 RMK A01 T03210125  RH  030%=      5-min Rain = 0
KME1 150456Z 20007KT 32/13 A2993 RMK A01 T03210125  RH  030%=      5-min Rain = 0
KME1 150457Z 20006KT 32/13 A2993 RMK A01 T03220125  RH  030%=      5-min Rain = 0
KME1 150458Z 20006KT 32/13 A2993 RMK A01 T03220125  RH  030%=      5-min Rain = 0
KME1 150459Z 20007KT 32/13 A2993 RMK A01 T03210125  RH  030%=      5-min Rain = 0

Page generated in 0.1123 seconds.